<?xml version="1.0" encoding="UTF-8" standalone="no" ?>
<gpx xmlns="http://www.topografix.com/GPX/1/1" xmlns:xsi="http://www.w3.org/2001/XMLSchema-instance" xsi:schemaLocation="http://www.topografix.com/GPX/1/1 http://www.topografix.com/GPX/1/1/gpx.xsd" version="1.1" creator="VisuGPX - https://www.visugpx.com">
  <metadata>
    <name>Petit tour de VTT</name>
    <desc><![CDATA[Circuit de chauffe de 20km]]></desc>
  </metadata>
  <trk>
    <name><![CDATA[Petit tour d'entraînement]]></name>
    <trkseg>
      <trkpt lat="45.0018" lon="1.07147">
        <ele>70.800003051758</ele>
        <time>2011-08-08T12:53:41.000Z</time>
      </trkpt>
      <trkpt lat="45.00173" lon="1.07151">
        <ele>70.199996948242</ele>
        <time>2011-08-08T12:53:45.000Z</time>
      </trkpt>
      <trkpt lat="45.00172" lon="1.07156">
        <ele>69.800003051758</ele>
        <time>2011-08-08T12:53:46.000Z</time>
      </trkpt>
      <trkpt lat="45.0016" lon="1.07201">
        <ele>69.800003051758</ele>
        <time>2011-08-08T12:53:54.000Z</time>
      </trkpt>
      <trkpt lat="45.00153" lon="1.07242">
        <ele>70.599998474121</ele>
        <time>2011-08-08T12:54:00.000Z</time>
      </trkpt>
      <trkpt lat="45.0015" lon="1.07304">
        <ele>69.800003051758</ele>
        <time>2011-08-08T12:54:08.000Z</time>
      </trkpt>
      <trkpt lat="45.00151" lon="1.07343">
        <ele>69.199996948242</ele>
        <time>2011-08-08T12:54:13.000Z</time>
      </trkpt>
      <trkpt lat="45.00149" lon="1.07371">
        <ele>68.599998474121</ele>
        <time>2011-08-08T12:54:17.000Z</time>
      </trkpt>
      <trkpt lat="45.00141" lon="1.07434">
        <ele>68.199996948242</ele>
        <time>2011-08-08T12:54:25.000Z</time>
      </trkpt>
      <trkpt lat="45.00135" lon="1.07482">
        <ele>68.599998474121</ele>
        <time>2011-08-08T12:54:32.000Z</time>
      </trkpt>
      <trkpt lat="45.00133" lon="1.07496">
        <ele>68.800003051758</ele>
        <time>2011-08-08T12:54:34.000Z</time>
      </trkpt>
      <trkpt lat="45.00124" lon="1.0752">
        <ele>68.599998474121</ele>
        <time>2011-08-08T12:54:38.000Z</time>
      </trkpt>
      <trkpt lat="45.00112" lon="1.07519">
        <ele>68.599998474121</ele>
        <time>2011-08-08T12:54:40.000Z</time>
      </trkpt>
      <trkpt lat="45.00074" lon="1.07503">
        <ele>68.800003051758</ele>
        <time>2011-08-08T12:54:46.000Z</time>
      </trkpt>
      <trkpt lat="45.00049" lon="1.07497">
        <ele>68.400001525879</ele>
        <time>2011-08-08T12:54:50.000Z</time>
      </trkpt>
      <trkpt lat="45.00016" lon="1.07487">
        <ele>68</ele>
        <time>2011-08-08T12:54:55.000Z</time>
      </trkpt>
      <trkpt lat="44.99999" lon="1.0748">
        <ele>67.599998474121</ele>
        <time>2011-08-08T12:54:58.000Z</time>
      </trkpt>
      <trkpt lat="44.99964" lon="1.07463">
        <ele>67.400001525879</ele>
        <time>2011-08-08T12:55:05.000Z</time>
      </trkpt>
      <trkpt lat="44.99935" lon="1.07456">
        <ele>67.800003051758</ele>
        <time>2011-08-08T12:55:10.000Z</time>
      </trkpt>
      <trkpt lat="44.99887" lon="1.07455">
        <ele>67.599998474121</ele>
        <time>2011-08-08T12:55:17.000Z</time>
      </trkpt>
      <trkpt lat="44.99848" lon="1.07454">
        <ele>67</ele>
        <time>2011-08-08T12:55:23.000Z</time>
      </trkpt>
      <trkpt lat="44.99801" lon="1.0745">
        <ele>67.599998474121</ele>
        <time>2011-08-08T12:55:31.000Z</time>
      </trkpt>
      <trkpt lat="44.99785" lon="1.07448">
        <ele>68</ele>
        <time>2011-08-08T12:55:34.000Z</time>
      </trkpt>
      <trkpt lat="44.99775" lon="1.07445">
        <ele>68.400001525879</ele>
        <time>2011-08-08T12:55:36.000Z</time>
      </trkpt>
      <trkpt lat="44.99757" lon="1.07441">
        <ele>68.800003051758</ele>
        <time>2011-08-08T12:55:40.000Z</time>
      </trkpt>
      <trkpt lat="44.99716" lon="1.07431">
        <ele>69</ele>
        <time>2011-08-08T12:55:48.000Z</time>
      </trkpt>
      <trkpt lat="44.99683" lon="1.07423">
        <ele>69</ele>
        <time>2011-08-08T12:55:54.000Z</time>
      </trkpt>
      <trkpt lat="44.99666" lon="1.07418">
        <ele>69</ele>
        <time>2011-08-08T12:55:57.000Z</time>
      </trkpt>
      <trkpt lat="44.99621" lon="1.07411">
        <ele>68.800003051758</ele>
        <time>2011-08-08T12:56:05.000Z</time>
      </trkpt>
      <trkpt lat="44.9959" lon="1.07398">
        <ele>68.800003051758</ele>
        <time>2011-08-08T12:56:11.000Z</time>
      </trkpt>
      <trkpt lat="44.99569" lon="1.07394">
        <ele>68.599998474121</ele>
        <time>2011-08-08T12:56:15.000Z</time>
      </trkpt>
      <trkpt lat="44.99543" lon="1.07388">
        <ele>68.199996948242</ele>
        <time>2011-08-08T12:56:20.000Z</time>
      </trkpt>
      <trkpt lat="44.99496" lon="1.07371">
        <ele>67.400001525879</ele>
        <time>2011-08-08T12:56:29.000Z</time>
      </trkpt>
      <trkpt lat="44.99468" lon="1.07361">
        <ele>67.800003051758</ele>
        <time>2011-08-08T12:56:35.000Z</time>
      </trkpt>
      <trkpt lat="44.99457" lon="1.07352">
        <ele>68</ele>
        <time>2011-08-08T12:56:38.000Z</time>
      </trkpt>
      <trkpt lat="44.99433" lon="1.07349">
        <ele>68</ele>
        <time>2011-08-08T12:56:43.000Z</time>
      </trkpt>
      <trkpt lat="44.99422" lon="1.0735">
        <ele>68</ele>
        <time>2011-08-08T12:56:45.000Z</time>
      </trkpt>
      <trkpt lat="44.99386" lon="1.07339">
        <ele>69</ele>
        <time>2011-08-08T12:56:52.000Z</time>
      </trkpt>
      <trkpt lat="44.99346" lon="1.07325">
        <ele>70.199996948242</ele>
        <time>2011-08-08T12:56:59.000Z</time>
      </trkpt>
      <trkpt lat="44.99303" lon="1.0731">
        <ele>69.599998474121</ele>
        <time>2011-08-08T12:57:07.000Z</time>
      </trkpt>
      <trkpt lat="44.99267" lon="1.07289">
        <ele>68.599998474121</ele>
        <time>2011-08-08T12:57:14.000Z</time>
      </trkpt>
      <trkpt lat="44.99242" lon="1.07278">
        <ele>68.199996948242</ele>
        <time>2011-08-08T12:57:19.000Z</time>
      </trkpt>
      <trkpt lat="44.99237" lon="1.07277">
        <ele>68.199996948242</ele>
        <time>2011-08-08T12:57:20.000Z</time>
      </trkpt>
      <trkpt lat="44.99218" lon="1.07268">
        <ele>68.199996948242</ele>
        <time>2011-08-08T12:57:24.000Z</time>
      </trkpt>
      <trkpt lat="44.99203" lon="1.07258">
        <ele>68</ele>
        <time>2011-08-08T12:57:27.000Z</time>
      </trkpt>
      <trkpt lat="44.99164" lon="1.07238">
        <ele>67.599998474121</ele>
        <time>2011-08-08T12:57:34.000Z</time>
      </trkpt>
      <trkpt lat="44.9912" lon="1.07211">
        <ele>67.800003051758</ele>
        <time>2011-08-08T12:57:42.000Z</time>
      </trkpt>
      <trkpt lat="44.99109" lon="1.07206">
        <ele>67.800003051758</ele>
        <time>2011-08-08T12:57:44.000Z</time>
      </trkpt>
      <trkpt lat="44.99073" lon="1.07181">
        <ele>68.599998474121</ele>
        <time>2011-08-08T12:57:51.000Z</time>
      </trkpt>
      <trkpt lat="44.99036" lon="1.07149">
        <ele>70.800003051758</ele>
        <time>2011-08-08T12:57:58.000Z</time>
      </trkpt>
      <trkpt lat="44.99021" lon="1.07134">
        <ele>71.400001525879</ele>
        <time>2011-08-08T12:58:01.000Z</time>
      </trkpt>
      <trkpt lat="44.99004" lon="1.07101">
        <ele>70</ele>
        <time>2011-08-08T12:58:06.000Z</time>
      </trkpt>
      <trkpt lat="44.98999" lon="1.0708">
        <ele>69.199996948242</ele>
        <time>2011-08-08T12:58:09.000Z</time>
      </trkpt>
      <trkpt lat="44.99001" lon="1.07049">
        <ele>69.400001525879</ele>
        <time>2011-08-08T12:58:14.000Z</time>
      </trkpt>
      <trkpt lat="44.99004" lon="1.07037">
        <ele>69.400001525879</ele>
        <time>2011-08-08T12:58:16.000Z</time>
      </trkpt>
      <trkpt lat="44.99016" lon="1.07021">
        <ele>69.599998474121</ele>
        <time>2011-08-08T12:58:20.000Z</time>
      </trkpt>
      <trkpt lat="44.99026" lon="1.07006">
        <ele>69.599998474121</ele>
        <time>2011-08-08T12:58:23.000Z</time>
      </trkpt>
      <trkpt lat="44.99041" lon="1.06957">
        <ele>70.400001525879</ele>
        <time>2011-08-08T12:58:30.000Z</time>
      </trkpt>
      <trkpt lat="44.9905" lon="1.06896">
        <ele>71.199996948242</ele>
        <time>2011-08-08T12:58:38.000Z</time>
      </trkpt>
      <trkpt lat="44.9906" lon="1.06849">
        <ele>71.199996948242</ele>
        <time>2011-08-08T12:58:44.000Z</time>
      </trkpt>
      <trkpt lat="44.99071" lon="1.06804">
        <ele>69.599998474121</ele>
        <time>2011-08-08T12:58:50.000Z</time>
      </trkpt>
      <trkpt lat="44.99085" lon="1.06762">
        <ele>66.400001525879</ele>
        <time>2011-08-08T12:58:56.000Z</time>
      </trkpt>
      <trkpt lat="44.99104" lon="1.06722">
        <ele>66.400001525879</ele>
        <time>2011-08-08T12:59:02.000Z</time>
      </trkpt>
      <trkpt lat="44.99114" lon="1.06702">
        <ele>66.400001525879</ele>
        <time>2011-08-08T12:59:05.000Z</time>
      </trkpt>
      <trkpt lat="44.99131" lon="1.06649">
        <ele>66.400001525879</ele>
        <time>2011-08-08T12:59:12.000Z</time>
      </trkpt>
      <trkpt lat="44.99141" lon="1.06605">
        <ele>66</ele>
        <time>2011-08-08T12:59:18.000Z</time>
      </trkpt>
      <trkpt lat="44.9915" lon="1.06558">
        <ele>66</ele>
        <time>2011-08-08T12:59:24.000Z</time>
      </trkpt>
      <trkpt lat="44.99157" lon="1.06502">
        <ele>66.199996948242</ele>
        <time>2011-08-08T12:59:31.000Z</time>
      </trkpt>
      <trkpt lat="44.9916" lon="1.0648">
        <ele>65.800003051758</ele>
        <time>2011-08-08T12:59:34.000Z</time>
      </trkpt>
      <trkpt lat="44.99163" lon="1.0645">
        <ele>65.400001525879</ele>
        <time>2011-08-08T12:59:38.000Z</time>
      </trkpt>
      <trkpt lat="44.9917" lon="1.06398">
        <ele>65.199996948242</ele>
        <time>2011-08-08T12:59:45.000Z</time>
      </trkpt>
      <trkpt lat="44.99179" lon="1.06349">
        <ele>66</ele>
        <time>2011-08-08T12:59:51.000Z</time>
      </trkpt>
      <trkpt lat="44.99181" lon="1.06334">
        <ele>66</ele>
        <time>2011-08-08T12:59:53.000Z</time>
      </trkpt>
      <trkpt lat="44.99185" lon="1.06304">
        <ele>66.800003051758</ele>
        <time>2011-08-08T12:59:58.000Z</time>
      </trkpt>
      <trkpt lat="44.9919" lon="1.0627">
        <ele>67.400001525879</ele>
        <time>2011-08-08T13:00:03.000Z</time>
      </trkpt>
      <trkpt lat="44.99196" lon="1.06229">
        <ele>67.599998474121</ele>
        <time>2011-08-08T13:00:09.000Z</time>
      </trkpt>
      <trkpt lat="44.99197" lon="1.06216">
        <ele>67.400001525879</ele>
        <time>2011-08-08T13:00:11.000Z</time>
      </trkpt>
      <trkpt lat="44.99192" lon="1.06184">
        <ele>66.800003051758</ele>
        <time>2011-08-08T13:00:16.000Z</time>
      </trkpt>
      <trkpt lat="44.99185" lon="1.06153">
        <ele>66.400001525879</ele>
        <time>2011-08-08T13:00:20.000Z</time>
      </trkpt>
      <trkpt lat="44.99192" lon="1.06139">
        <ele>66.599998474121</ele>
        <time>2011-08-08T13:00:23.000Z</time>
      </trkpt>
      <trkpt lat="44.99193" lon="1.06109">
        <ele>66.800003051758</ele>
        <time>2011-08-08T13:00:28.000Z</time>
      </trkpt>
      <trkpt lat="44.99194" lon="1.06086">
        <ele>66.800003051758</ele>
        <time>2011-08-08T13:00:32.000Z</time>
      </trkpt>
      <trkpt lat="44.99193" lon="1.06074">
        <ele>67</ele>
        <time>2011-08-08T13:00:34.000Z</time>
      </trkpt>
      <trkpt lat="44.99192" lon="1.06057">
        <ele>67.400001525879</ele>
        <time>2011-08-08T13:00:37.000Z</time>
      </trkpt>
      <trkpt lat="44.99193" lon="1.06027">
        <ele>68</ele>
        <time>2011-08-08T13:00:42.000Z</time>
      </trkpt>
      <trkpt lat="44.99191" lon="1.05989">
        <ele>68.400001525879</ele>
        <time>2011-08-08T13:00:48.000Z</time>
      </trkpt>
      <trkpt lat="44.99187" lon="1.05949">
        <ele>68.199996948242</ele>
        <time>2011-08-08T13:00:54.000Z</time>
      </trkpt>
      <trkpt lat="44.99185" lon="1.05923">
        <ele>68.199996948242</ele>
        <time>2011-08-08T13:00:58.000Z</time>
      </trkpt>
      <trkpt lat="44.99181" lon="1.05874">
        <ele>66.800003051758</ele>
        <time>2011-08-08T13:01:06.000Z</time>
      </trkpt>
      <trkpt lat="44.99181" lon="1.05869">
        <ele>66.800003051758</ele>
        <time>2011-08-08T13:01:07.000Z</time>
      </trkpt>
      <trkpt lat="44.99193" lon="1.05855">
        <ele>66.199996948242</ele>
        <time>2011-08-08T13:01:11.000Z</time>
      </trkpt>
      <trkpt lat="44.99209" lon="1.05847">
        <ele>65.800003051758</ele>
        <time>2011-08-08T13:01:15.000Z</time>
      </trkpt>
      <trkpt lat="44.99212" lon="1.05823">
        <ele>65.400001525879</ele>
        <time>2011-08-08T13:01:19.000Z</time>
      </trkpt>
      <trkpt lat="44.99212" lon="1.05808">
        <ele>65.199996948242</ele>
        <time>2011-08-08T13:01:21.000Z</time>
      </trkpt>
      <trkpt lat="44.99218" lon="1.05738">
        <ele>65.199996948242</ele>
        <time>2011-08-08T13:01:31.000Z</time>
      </trkpt>
      <trkpt lat="44.99229" lon="1.05691">
        <ele>65.400001525879</ele>
        <time>2011-08-08T13:01:37.000Z</time>
      </trkpt>
      <trkpt lat="44.99234" lon="1.05676">
        <ele>65.599998474121</ele>
        <time>2011-08-08T13:01:39.000Z</time>
      </trkpt>
      <trkpt lat="44.99238" lon="1.05661">
        <ele>65.599998474121</ele>
        <time>2011-08-08T13:01:41.000Z</time>
      </trkpt>
      <trkpt lat="44.9924" lon="1.05593">
        <ele>66.599998474121</ele>
        <time>2011-08-08T13:01:50.000Z</time>
      </trkpt>
      <trkpt lat="44.99251" lon="1.05545">
        <ele>71.199996948242</ele>
        <time>2011-08-08T13:01:57.000Z</time>
      </trkpt>
      <trkpt lat="44.99268" lon="1.05516">
        <ele>77.199996948242</ele>
        <time>2011-08-08T13:02:03.000Z</time>
      </trkpt>
      <trkpt lat="44.99275" lon="1.05508">
        <ele>79.599998474121</ele>
        <time>2011-08-08T13:02:05.000Z</time>
      </trkpt>
      <trkpt lat="44.99278" lon="1.05489">
        <ele>84.199996948242</ele>
        <time>2011-08-08T13:02:09.000Z</time>
      </trkpt>
      <trkpt lat="44.99276" lon="1.05485">
        <ele>84.800003051758</ele>
        <time>2011-08-08T13:02:10.000Z</time>
      </trkpt>
      <trkpt lat="44.99254" lon="1.05454">
        <ele>88.400001525879</ele>
        <time>2011-08-08T13:02:18.000Z</time>
      </trkpt>
      <trkpt lat="44.99232" lon="1.05432">
        <ele>89</ele>
        <time>2011-08-08T13:02:25.000Z</time>
      </trkpt>
      <trkpt lat="44.99213" lon="1.05415">
        <ele>87.400001525879</ele>
        <time>2011-08-08T13:02:31.000Z</time>
      </trkpt>
      <trkpt lat="44.99204" lon="1.05402">
        <ele>86.400001525879</ele>
        <time>2011-08-08T13:02:35.000Z</time>
      </trkpt>
      <trkpt lat="44.99201" lon="1.05397">
        <ele>86.199996948242</ele>
        <time>2011-08-08T13:02:36.000Z</time>
      </trkpt>
      <trkpt lat="44.99191" lon="1.05375">
        <ele>85</ele>
        <time>2011-08-08T13:02:40.000Z</time>
      </trkpt>
      <trkpt lat="44.99187" lon="1.05362">
        <ele>85</ele>
        <time>2011-08-08T13:02:42.000Z</time>
      </trkpt>
      <trkpt lat="44.99181" lon="1.05343">
        <ele>84.400001525879</ele>
        <time>2011-08-08T13:02:45.000Z</time>
      </trkpt>
      <trkpt lat="44.99177" lon="1.05329">
        <ele>83.800003051758</ele>
        <time>2011-08-08T13:02:47.000Z</time>
      </trkpt>
      <trkpt lat="44.99176" lon="1.05299">
        <ele>83.400001525879</ele>
        <time>2011-08-08T13:02:51.000Z</time>
      </trkpt>
      <trkpt lat="44.9918" lon="1.05287">
        <ele>84.800003051758</ele>
        <time>2011-08-08T13:02:53.000Z</time>
      </trkpt>
      <trkpt lat="44.99199" lon="1.05257">
        <ele>90</ele>
        <time>2011-08-08T13:03:01.000Z</time>
      </trkpt>
      <trkpt lat="44.99215" lon="1.05233">
        <ele>93.800003051758</ele>
        <time>2011-08-08T13:03:08.000Z</time>
      </trkpt>
      <trkpt lat="44.99227" lon="1.05215">
        <ele>94.800003051758</ele>
        <time>2011-08-08T13:03:13.000Z</time>
      </trkpt>
      <trkpt lat="44.99242" lon="1.05198">
        <ele>94.599998474121</ele>
        <time>2011-08-08T13:03:19.000Z</time>
      </trkpt>
      <trkpt lat="44.99251" lon="1.0519">
        <ele>94.199996948242</ele>
        <time>2011-08-08T13:03:23.000Z</time>
      </trkpt>
      <trkpt lat="44.99264" lon="1.05179">
        <ele>94.800003051758</ele>
        <time>2011-08-08T13:03:28.000Z</time>
      </trkpt>
      <trkpt lat="44.99279" lon="1.05163">
        <ele>95.800003051758</ele>
        <time>2011-08-08T13:03:34.000Z</time>
      </trkpt>
      <trkpt lat="44.99295" lon="1.05148">
        <ele>98.400001525879</ele>
        <time>2011-08-08T13:03:39.000Z</time>
      </trkpt>
      <trkpt lat="44.99316" lon="1.05126">
        <ele>99.599998474121</ele>
        <time>2011-08-08T13:03:45.000Z</time>
      </trkpt>
      <trkpt lat="44.99334" lon="1.05109">
        <ele>98.400001525879</ele>
        <time>2011-08-08T13:03:50.000Z</time>
      </trkpt>
      <trkpt lat="44.99355" lon="1.05092">
        <ele>99.400001525879</ele>
        <time>2011-08-08T13:03:55.000Z</time>
      </trkpt>
      <trkpt lat="44.99377" lon="1.05072">
        <ele>101.40000152588</ele>
        <time>2011-08-08T13:04:00.000Z</time>
      </trkpt>
      <trkpt lat="44.99402" lon="1.05048">
        <ele>102.59999847412</ele>
        <time>2011-08-08T13:04:06.000Z</time>
      </trkpt>
      <trkpt lat="44.99423" lon="1.05026">
        <ele>101.59999847412</ele>
        <time>2011-08-08T13:04:12.000Z</time>
      </trkpt>
      <trkpt lat="44.99437" lon="1.05013">
        <ele>101.59999847412</ele>
        <time>2011-08-08T13:04:17.000Z</time>
      </trkpt>
      <trkpt lat="44.9945" lon="1.05002">
        <ele>101.40000152588</ele>
        <time>2011-08-08T13:04:21.000Z</time>
      </trkpt>
      <trkpt lat="44.99462" lon="1.04996">
        <ele>102.80000305176</ele>
        <time>2011-08-08T13:04:25.000Z</time>
      </trkpt>
      <trkpt lat="44.99476" lon="1.0499">
        <ele>104.40000152588</ele>
        <time>2011-08-08T13:04:30.000Z</time>
      </trkpt>
      <trkpt lat="44.99493" lon="1.04981">
        <ele>106.19999694824</ele>
        <time>2011-08-08T13:04:35.000Z</time>
      </trkpt>
      <trkpt lat="44.99512" lon="1.04971">
        <ele>107.59999847412</ele>
        <time>2011-08-08T13:04:41.000Z</time>
      </trkpt>
      <trkpt lat="44.9953" lon="1.04965">
        <ele>108.19999694824</ele>
        <time>2011-08-08T13:04:46.000Z</time>
      </trkpt>
      <trkpt lat="44.99548" lon="1.04955">
        <ele>108.40000152588</ele>
        <time>2011-08-08T13:04:51.000Z</time>
      </trkpt>
      <trkpt lat="44.9957" lon="1.04945">
        <ele>107.59999847412</ele>
        <time>2011-08-08T13:04:57.000Z</time>
      </trkpt>
      <trkpt lat="44.99588" lon="1.04939">
        <ele>107.40000152588</ele>
        <time>2011-08-08T13:05:02.000Z</time>
      </trkpt>
      <trkpt lat="44.99599" lon="1.04936">
        <ele>108.59999847412</ele>
        <time>2011-08-08T13:05:08.000Z</time>
      </trkpt>
      <trkpt lat="44.99608" lon="1.04927">
        <ele>108.80000305176</ele>
        <time>2011-08-08T13:05:13.000Z</time>
      </trkpt>
      <trkpt lat="44.99622" lon="1.04916">
        <ele>109</ele>
        <time>2011-08-08T13:05:19.000Z</time>
      </trkpt>
      <trkpt lat="44.99624" lon="1.04915">
        <ele>109.40000152588</ele>
        <time>2011-08-08T13:05:20.000Z</time>
      </trkpt>
      <trkpt lat="44.99641" lon="1.04907">
        <ele>111.80000305176</ele>
        <time>2011-08-08T13:05:26.000Z</time>
      </trkpt>
      <trkpt lat="44.99657" lon="1.04894">
        <ele>113.80000305176</ele>
        <time>2011-08-08T13:05:31.000Z</time>
      </trkpt>
      <trkpt lat="44.99674" lon="1.04881">
        <ele>115.40000152588</ele>
        <time>2011-08-08T13:05:36.000Z</time>
      </trkpt>
      <trkpt lat="44.99688" lon="1.04868">
        <ele>116.80000305176</ele>
        <time>2011-08-08T13:05:40.000Z</time>
      </trkpt>
      <trkpt lat="44.99694" lon="1.04865">
        <ele>117.19999694824</ele>
        <time>2011-08-08T13:05:42.000Z</time>
      </trkpt>
      <trkpt lat="44.99705" lon="1.04854">
        <ele>117.80000305176</ele>
        <time>2011-08-08T13:05:47.000Z</time>
      </trkpt>
      <trkpt lat="44.99718" lon="1.04837">
        <ele>117.40000152588</ele>
        <time>2011-08-08T13:05:53.000Z</time>
      </trkpt>
      <trkpt lat="44.99723" lon="1.04829">
        <ele>117.40000152588</ele>
        <time>2011-08-08T13:05:56.000Z</time>
      </trkpt>
      <trkpt lat="44.9973" lon="1.04812">
        <ele>118</ele>
        <time>2011-08-08T13:06:03.000Z</time>
      </trkpt>
      <trkpt lat="44.99732" lon="1.04808">
        <ele>118</ele>
        <time>2011-08-08T13:06:05.000Z</time>
      </trkpt>
      <trkpt lat="44.99737" lon="1.04798">
        <ele>118.19999694824</ele>
        <time>2011-08-08T13:06:08.000Z</time>
      </trkpt>
      <trkpt lat="44.99744" lon="1.04771">
        <ele>117.80000305176</ele>
        <time>2011-08-08T13:06:14.000Z</time>
      </trkpt>
      <trkpt lat="44.9974" lon="1.04759">
        <ele>117.80000305176</ele>
        <time>2011-08-08T13:06:17.000Z</time>
      </trkpt>
      <trkpt lat="44.99743" lon="1.04741">
        <ele>118.59999847412</ele>
        <time>2011-08-08T13:06:22.000Z</time>
      </trkpt>
      <trkpt lat="44.99747" lon="1.04728">
        <ele>119.40000152588</ele>
        <time>2011-08-08T13:06:27.000Z</time>
      </trkpt>
      <trkpt lat="44.99749" lon="1.04716">
        <ele>120.40000152588</ele>
        <time>2011-08-08T13:06:32.000Z</time>
      </trkpt>
      <trkpt lat="44.9975" lon="1.04711">
        <ele>120.59999847412</ele>
        <time>2011-08-08T13:06:35.000Z</time>
      </trkpt>
      <trkpt lat="44.99751" lon="1.04699">
        <ele>121.80000305176</ele>
        <time>2011-08-08T13:08:16.000Z</time>
      </trkpt>
      <trkpt lat="44.99748" lon="1.04703">
        <ele>121.59999847412</ele>
        <time>2011-08-08T13:08:19.000Z</time>
      </trkpt>
      <trkpt lat="44.99737" lon="1.04713">
        <ele>122.40000152588</ele>
        <time>2011-08-08T13:08:28.000Z</time>
      </trkpt>
      <trkpt lat="44.99726" lon="1.04721">
        <ele>123</ele>
        <time>2011-08-08T13:08:34.000Z</time>
      </trkpt>
      <trkpt lat="44.99717" lon="1.04733">
        <ele>122.59999847412</ele>
        <time>2011-08-08T13:08:39.000Z</time>
      </trkpt>
      <trkpt lat="44.99712" lon="1.04741">
        <ele>121.80000305176</ele>
        <time>2011-08-08T13:08:43.000Z</time>
      </trkpt>
      <trkpt lat="44.99702" lon="1.04754">
        <ele>121.19999694824</ele>
        <time>2011-08-08T13:08:48.000Z</time>
      </trkpt>
      <trkpt lat="44.99696" lon="1.04763">
        <ele>121</ele>
        <time>2011-08-08T13:08:53.000Z</time>
      </trkpt>
      <trkpt lat="44.99684" lon="1.04776">
        <ele>120.59999847412</ele>
        <time>2011-08-08T13:08:59.000Z</time>
      </trkpt>
      <trkpt lat="44.99673" lon="1.04785">
        <ele>120.19999694824</ele>
        <time>2011-08-08T13:09:05.000Z</time>
      </trkpt>
      <trkpt lat="44.99662" lon="1.04793">
        <ele>119.59999847412</ele>
        <time>2011-08-08T13:09:12.000Z</time>
      </trkpt>
      <trkpt lat="44.99649" lon="1.048">
        <ele>119.19999694824</ele>
        <time>2011-08-08T13:09:19.000Z</time>
      </trkpt>
      <trkpt lat="44.99636" lon="1.04801">
        <ele>119.80000305176</ele>
        <time>2011-08-08T13:09:24.000Z</time>
      </trkpt>
      <trkpt lat="44.99621" lon="1.04797">
        <ele>121.19999694824</ele>
        <time>2011-08-08T13:09:30.000Z</time>
      </trkpt>
      <trkpt lat="44.99619" lon="1.04796">
        <ele>121.59999847412</ele>
        <time>2011-08-08T13:09:31.000Z</time>
      </trkpt>
      <trkpt lat="44.99605" lon="1.04782">
        <ele>124.80000305176</ele>
        <time>2011-08-08T13:09:37.000Z</time>
      </trkpt>
      <trkpt lat="44.99595" lon="1.04778">
        <ele>126</ele>
        <time>2011-08-08T13:09:42.000Z</time>
      </trkpt>
      <trkpt lat="44.99593" lon="1.04779">
        <ele>126</ele>
        <time>2011-08-08T13:09:43.000Z</time>
      </trkpt>
      <trkpt lat="44.99583" lon="1.04791">
        <ele>124.59999847412</ele>
        <time>2011-08-08T13:09:48.000Z</time>
      </trkpt>
      <trkpt lat="44.99578" lon="1.04797">
        <ele>124</ele>
        <time>2011-08-08T13:09:51.000Z</time>
      </trkpt>
      <trkpt lat="44.99575" lon="1.04804">
        <ele>123.19999694824</ele>
        <time>2011-08-08T13:09:54.000Z</time>
      </trkpt>
      <trkpt lat="44.99563" lon="1.04818">
        <ele>121.80000305176</ele>
        <time>2011-08-08T13:10:01.000Z</time>
      </trkpt>
      <trkpt lat="44.9955" lon="1.04831">
        <ele>120.80000305176</ele>
        <time>2011-08-08T13:10:07.000Z</time>
      </trkpt>
      <trkpt lat="44.99539" lon="1.0484">
        <ele>120.40000152588</ele>
        <time>2011-08-08T13:10:12.000Z</time>
      </trkpt>
      <trkpt lat="44.99526" lon="1.04845">
        <ele>120.80000305176</ele>
        <time>2011-08-08T13:10:21.000Z</time>
      </trkpt>
      <trkpt lat="44.9951" lon="1.04848">
        <ele>122</ele>
        <time>2011-08-08T13:10:31.000Z</time>
      </trkpt>
      <trkpt lat="44.99498" lon="1.04849">
        <ele>122.80000305176</ele>
        <time>2011-08-08T13:10:39.000Z</time>
      </trkpt>
      <trkpt lat="44.99484" lon="1.04855">
        <ele>122.80000305176</ele>
        <time>2011-08-08T13:10:48.000Z</time>
      </trkpt>
      <trkpt lat="44.9947" lon="1.04859">
        <ele>123</ele>
        <time>2011-08-08T13:10:56.000Z</time>
      </trkpt>
      <trkpt lat="44.99459" lon="1.04858">
        <ele>124.19999694824</ele>
        <time>2011-08-08T13:11:04.000Z</time>
      </trkpt>
      <trkpt lat="44.99448" lon="1.04856">
        <ele>125.40000152588</ele>
        <time>2011-08-08T13:11:12.000Z</time>
      </trkpt>
      <trkpt lat="44.99447" lon="1.04856">
        <ele>125.59999847412</ele>
        <time>2011-08-08T13:11:13.000Z</time>
      </trkpt>
      <trkpt lat="44.99436" lon="1.04853">
        <ele>127</ele>
        <time>2011-08-08T13:11:20.000Z</time>
      </trkpt>
      <trkpt lat="44.99426" lon="1.0485">
        <ele>128.60000610352</ele>
        <time>2011-08-08T13:11:26.000Z</time>
      </trkpt>
      <trkpt lat="44.99425" lon="1.0485">
        <ele>128.60000610352</ele>
        <time>2011-08-08T13:11:27.000Z</time>
      </trkpt>
      <trkpt lat="44.9942" lon="1.04848">
        <ele>129.39999389648</ele>
        <time>2011-08-08T13:11:31.000Z</time>
      </trkpt>
      <trkpt lat="44.9941" lon="1.04851">
        <ele>130.19999694824</ele>
        <time>2011-08-08T13:11:37.000Z</time>
      </trkpt>
      <trkpt lat="44.99405" lon="1.04854">
        <ele>130.39999389648</ele>
        <time>2011-08-08T13:11:41.000Z</time>
      </trkpt>
      <trkpt lat="44.99399" lon="1.04859">
        <ele>130.19999694824</ele>
        <time>2011-08-08T13:11:47.000Z</time>
      </trkpt>
      <trkpt lat="44.99393" lon="1.04863">
        <ele>130.19999694824</ele>
        <time>2011-08-08T13:11:52.000Z</time>
      </trkpt>
      <trkpt lat="44.99383" lon="1.04872">
        <ele>130</ele>
        <time>2011-08-08T13:11:59.000Z</time>
      </trkpt>
      <trkpt lat="44.99378" lon="1.04875">
        <ele>130.19999694824</ele>
        <time>2011-08-08T13:12:04.000Z</time>
      </trkpt>
      <trkpt lat="44.99365" lon="1.0488">
        <ele>131.19999694824</ele>
        <time>2011-08-08T13:12:46.000Z</time>
      </trkpt>
      <trkpt lat="44.99356" lon="1.04887">
        <ele>131.39999389648</ele>
        <time>2011-08-08T13:12:52.000Z</time>
      </trkpt>
      <trkpt lat="44.99344" lon="1.04895">
        <ele>132</ele>
        <time>2011-08-08T13:12:59.000Z</time>
      </trkpt>
      <trkpt lat="44.99332" lon="1.04901">
        <ele>132.80000305176</ele>
        <time>2011-08-08T13:13:04.000Z</time>
      </trkpt>
      <trkpt lat="44.99318" lon="1.04907">
        <ele>133.19999694824</ele>
        <time>2011-08-08T13:13:10.000Z</time>
      </trkpt>
      <trkpt lat="44.99306" lon="1.04917">
        <ele>132.39999389648</ele>
        <time>2011-08-08T13:13:15.000Z</time>
      </trkpt>
      <trkpt lat="44.99292" lon="1.04925">
        <ele>132</ele>
        <time>2011-08-08T13:13:21.000Z</time>
      </trkpt>
      <trkpt lat="44.99273" lon="1.0493">
        <ele>133</ele>
        <time>2011-08-08T13:13:29.000Z</time>
      </trkpt>
      <trkpt lat="44.99265" lon="1.04931">
        <ele>133.60000610352</ele>
        <time>2011-08-08T13:13:33.000Z</time>
      </trkpt>
      <trkpt lat="44.99256" lon="1.04934">
        <ele>134</ele>
        <time>2011-08-08T13:13:38.000Z</time>
      </trkpt>
      <trkpt lat="44.99251" lon="1.04936">
        <ele>134.39999389648</ele>
        <time>2011-08-08T13:13:40.000Z</time>
      </trkpt>
      <trkpt lat="44.99239" lon="1.04938">
        <ele>135</ele>
        <time>2011-08-08T13:13:45.000Z</time>
      </trkpt>
      <trkpt lat="44.9923" lon="1.04942">
        <ele>135</ele>
        <time>2011-08-08T13:13:50.000Z</time>
      </trkpt>
      <trkpt lat="44.9923" lon="1.04942">
        <ele>135</ele>
        <time>2011-08-08T13:13:51.000Z</time>
      </trkpt>
      <trkpt lat="44.99223" lon="1.04946">
        <ele>135</ele>
        <time>2011-08-08T13:13:57.000Z</time>
      </trkpt>
      <trkpt lat="44.99222" lon="1.04946">
        <ele>135.19999694824</ele>
        <time>2011-08-08T13:14:00.000Z</time>
      </trkpt>
      <trkpt lat="44.99217" lon="1.04947">
        <ele>135.39999389648</ele>
        <time>2011-08-08T13:14:04.000Z</time>
      </trkpt>
      <trkpt lat="44.99201" lon="1.04963">
        <ele>134</ele>
        <time>2011-08-08T13:14:09.000Z</time>
      </trkpt>
      <trkpt lat="44.9918" lon="1.04989">
        <ele>131.39999389648</ele>
        <time>2011-08-08T13:14:14.000Z</time>
      </trkpt>
      <trkpt lat="44.99166" lon="1.04989">
        <ele>132.80000305176</ele>
        <time>2011-08-08T13:14:18.000Z</time>
      </trkpt>
      <trkpt lat="44.99157" lon="1.04985">
        <ele>134.60000610352</ele>
        <time>2011-08-08T13:14:22.000Z</time>
      </trkpt>
      <trkpt lat="44.99147" lon="1.0499">
        <ele>134.80000305176</ele>
        <time>2011-08-08T13:14:27.000Z</time>
      </trkpt>
      <trkpt lat="44.99135" lon="1.04995">
        <ele>135.60000610352</ele>
        <time>2011-08-08T13:14:34.000Z</time>
      </trkpt>
      <trkpt lat="44.9912" lon="1.05">
        <ele>136.39999389648</ele>
        <time>2011-08-08T13:14:41.000Z</time>
      </trkpt>
      <trkpt lat="44.99107" lon="1.05007">
        <ele>136.80000305176</ele>
        <time>2011-08-08T13:14:49.000Z</time>
      </trkpt>
      <trkpt lat="44.991" lon="1.05016">
        <ele>136.19999694824</ele>
        <time>2011-08-08T13:14:55.000Z</time>
      </trkpt>
      <trkpt lat="44.99089" lon="1.05034">
        <ele>135.19999694824</ele>
        <time>2011-08-08T13:15:01.000Z</time>
      </trkpt>
      <trkpt lat="44.99078" lon="1.05052">
        <ele>133.80000305176</ele>
        <time>2011-08-08T13:15:07.000Z</time>
      </trkpt>
      <trkpt lat="44.99061" lon="1.05081">
        <ele>131</ele>
        <time>2011-08-08T13:15:14.000Z</time>
      </trkpt>
      <trkpt lat="44.99052" lon="1.05098">
        <ele>129</ele>
        <time>2011-08-08T13:15:18.000Z</time>
      </trkpt>
      <trkpt lat="44.99035" lon="1.05132">
        <ele>125.59999847412</ele>
        <time>2011-08-08T13:15:26.000Z</time>
      </trkpt>
      <trkpt lat="44.99025" lon="1.05146">
        <ele>124.59999847412</ele>
        <time>2011-08-08T13:15:31.000Z</time>
      </trkpt>
      <trkpt lat="44.99014" lon="1.05166">
        <ele>123.19999694824</ele>
        <time>2011-08-08T13:15:38.000Z</time>
      </trkpt>
      <trkpt lat="44.98994" lon="1.05181">
        <ele>120.59999847412</ele>
        <time>2011-08-08T13:15:43.000Z</time>
      </trkpt>
      <trkpt lat="44.98989" lon="1.05181">
        <ele>121</ele>
        <time>2011-08-08T13:15:44.000Z</time>
      </trkpt>
      <trkpt lat="44.98979" lon="1.0518">
        <ele>121.59999847412</ele>
        <time>2011-08-08T13:15:49.000Z</time>
      </trkpt>
      <trkpt lat="44.98964" lon="1.05177">
        <ele>123</ele>
        <time>2011-08-08T13:15:58.000Z</time>
      </trkpt>
      <trkpt lat="44.98947" lon="1.05175">
        <ele>124.19999694824</ele>
        <time>2011-08-08T13:16:09.000Z</time>
      </trkpt>
      <trkpt lat="44.98933" lon="1.05175">
        <ele>125</ele>
        <time>2011-08-08T13:16:18.000Z</time>
      </trkpt>
      <trkpt lat="44.98918" lon="1.05177">
        <ele>124.80000305176</ele>
        <time>2011-08-08T13:16:28.000Z</time>
      </trkpt>
      <trkpt lat="44.98907" lon="1.05178">
        <ele>123.80000305176</ele>
        <time>2011-08-08T13:16:35.000Z</time>
      </trkpt>
      <trkpt lat="44.98906" lon="1.05182">
        <ele>122.40000152588</ele>
        <time>2011-08-08T13:16:39.000Z</time>
      </trkpt>
      <trkpt lat="44.98905" lon="1.05182">
        <ele>122.59999847412</ele>
        <time>2011-08-08T13:34:00.000Z</time>
      </trkpt>
      <trkpt lat="44.9884" lon="1.05126">
        <ele>124.19999694824</ele>
        <time>2011-08-08T13:34:20.000Z</time>
      </trkpt>
      <trkpt lat="44.98823" lon="1.05106">
        <ele>124.59999847412</ele>
        <time>2011-08-08T13:34:23.000Z</time>
      </trkpt>
      <trkpt lat="44.98798" lon="1.05097">
        <ele>123.59999847412</ele>
        <time>2011-08-08T13:34:27.000Z</time>
      </trkpt>
      <trkpt lat="44.9875" lon="1.05107">
        <ele>119.80000305176</ele>
        <time>2011-08-08T13:34:34.000Z</time>
      </trkpt>
      <trkpt lat="44.98734" lon="1.05111">
        <ele>118.59999847412</ele>
        <time>2011-08-08T13:34:36.000Z</time>
      </trkpt>
      <trkpt lat="44.98706" lon="1.05138">
        <ele>115.40000152588</ele>
        <time>2011-08-08T13:34:40.000Z</time>
      </trkpt>
      <trkpt lat="44.98694" lon="1.05162">
        <ele>113.80000305176</ele>
        <time>2011-08-08T13:34:42.000Z</time>
      </trkpt>
      <trkpt lat="44.98658" lon="1.0519">
        <ele>107.19999694824</ele>
        <time>2011-08-08T13:34:46.000Z</time>
      </trkpt>
      <trkpt lat="44.98623" lon="1.05186">
        <ele>100.80000305176</ele>
        <time>2011-08-08T13:34:49.000Z</time>
      </trkpt>
      <trkpt lat="44.98612" lon="1.05182">
        <ele>99</ele>
        <time>2011-08-08T13:34:50.000Z</time>
      </trkpt>
      <trkpt lat="44.98579" lon="1.05155">
        <ele>94</ele>
        <time>2011-08-08T13:34:54.000Z</time>
      </trkpt>
      <trkpt lat="44.98567" lon="1.05116">
        <ele>92.400001525879</ele>
        <time>2011-08-08T13:34:57.000Z</time>
      </trkpt>
      <trkpt lat="44.98571" lon="1.05055">
        <ele>92.400001525879</ele>
        <time>2011-08-08T13:35:01.000Z</time>
      </trkpt>
      <trkpt lat="44.98583" lon="1.05013">
        <ele>91</ele>
        <time>2011-08-08T13:35:04.000Z</time>
      </trkpt>
      <trkpt lat="44.98583" lon="1.04992">
        <ele>89.599998474121</ele>
        <time>2011-08-08T13:35:08.000Z</time>
      </trkpt>
      <trkpt lat="44.98572" lon="1.04998">
        <ele>89.199996948242</ele>
        <time>2011-08-08T13:35:10.000Z</time>
      </trkpt>
      <trkpt lat="44.98559" lon="1.05009">
        <ele>88.800003051758</ele>
        <time>2011-08-08T13:35:12.000Z</time>
      </trkpt>
      <trkpt lat="44.98532" lon="1.05045">
        <ele>86</ele>
        <time>2011-08-08T13:35:16.000Z</time>
      </trkpt>
      <trkpt lat="44.9852" lon="1.0508">
        <ele>82.599998474121</ele>
        <time>2011-08-08T13:35:19.000Z</time>
      </trkpt>
      <trkpt lat="44.98503" lon="1.05097">
        <ele>78.199996948242</ele>
        <time>2011-08-08T13:35:22.000Z</time>
      </trkpt>
      <trkpt lat="44.98496" lon="1.05095">
        <ele>78.199996948242</ele>
        <time>2011-08-08T13:35:23.000Z</time>
      </trkpt>
      <trkpt lat="44.98475" lon="1.0509">
        <ele>81.800003051758</ele>
        <time>2011-08-08T13:35:26.000Z</time>
      </trkpt>
      <trkpt lat="44.98455" lon="1.051">
        <ele>84.400001525879</ele>
        <time>2011-08-08T13:35:30.000Z</time>
      </trkpt>
      <trkpt lat="44.98453" lon="1.05106">
        <ele>84.400001525879</ele>
        <time>2011-08-08T13:35:31.000Z</time>
      </trkpt>
      <trkpt lat="44.98444" lon="1.05148">
        <ele>83</ele>
        <time>2011-08-08T13:35:39.000Z</time>
      </trkpt>
      <trkpt lat="44.98437" lon="1.05174">
        <ele>81.800003051758</ele>
        <time>2011-08-08T13:35:45.000Z</time>
      </trkpt>
      <trkpt lat="44.98434" lon="1.05188">
        <ele>80.800003051758</ele>
        <time>2011-08-08T13:35:49.000Z</time>
      </trkpt>
      <trkpt lat="44.98424" lon="1.05206">
        <ele>80</ele>
        <time>2011-08-08T13:35:55.000Z</time>
      </trkpt>
      <trkpt lat="44.98412" lon="1.05217">
        <ele>79.800003051758</ele>
        <time>2011-08-08T13:36:01.000Z</time>
      </trkpt>
      <trkpt lat="44.98395" lon="1.05216">
        <ele>81</ele>
        <time>2011-08-08T13:36:06.000Z</time>
      </trkpt>
      <trkpt lat="44.98377" lon="1.05213">
        <ele>82.800003051758</ele>
        <time>2011-08-08T13:36:11.000Z</time>
      </trkpt>
      <trkpt lat="44.98363" lon="1.05208">
        <ele>84.800003051758</ele>
        <time>2011-08-08T13:36:15.000Z</time>
      </trkpt>
      <trkpt lat="44.98341" lon="1.05196">
        <ele>89</ele>
        <time>2011-08-08T13:36:21.000Z</time>
      </trkpt>
      <trkpt lat="44.9832" lon="1.0518">
        <ele>92.599998474121</ele>
        <time>2011-08-08T13:36:27.000Z</time>
      </trkpt>
      <trkpt lat="44.98304" lon="1.05171">
        <ele>94</ele>
        <time>2011-08-08T13:36:32.000Z</time>
      </trkpt>
      <trkpt lat="44.98288" lon="1.0517">
        <ele>93.599998474121</ele>
        <time>2011-08-08T13:36:36.000Z</time>
      </trkpt>
      <trkpt lat="44.9826" lon="1.05166">
        <ele>93.400001525879</ele>
        <time>2011-08-08T13:36:43.000Z</time>
      </trkpt>
      <trkpt lat="44.98232" lon="1.05164">
        <ele>92.400001525879</ele>
        <time>2011-08-08T13:36:50.000Z</time>
      </trkpt>
      <trkpt lat="44.98203" lon="1.05161">
        <ele>91.400001525879</ele>
        <time>2011-08-08T13:36:57.000Z</time>
      </trkpt>
      <trkpt lat="44.98176" lon="1.05161">
        <ele>90.400001525879</ele>
        <time>2011-08-08T13:37:03.000Z</time>
      </trkpt>
      <trkpt lat="44.9817" lon="1.05161">
        <ele>90.199996948242</ele>
        <time>2011-08-08T13:37:04.000Z</time>
      </trkpt>
      <trkpt lat="44.98141" lon="1.05141">
        <ele>89.400001525879</ele>
        <time>2011-08-08T13:37:10.000Z</time>
      </trkpt>
      <trkpt lat="44.98106" lon="1.05091">
        <ele>88.199996948242</ele>
        <time>2011-08-08T13:37:19.000Z</time>
      </trkpt>
      <trkpt lat="44.98076" lon="1.0505">
        <ele>86.800003051758</ele>
        <time>2011-08-08T13:37:27.000Z</time>
      </trkpt>
      <trkpt lat="44.98051" lon="1.05021">
        <ele>85.800003051758</ele>
        <time>2011-08-08T13:37:33.000Z</time>
      </trkpt>
      <trkpt lat="44.9804" lon="1.04995">
        <ele>86</ele>
        <time>2011-08-08T13:37:37.000Z</time>
      </trkpt>
      <trkpt lat="44.98027" lon="1.04928">
        <ele>86.599998474121</ele>
        <time>2011-08-08T13:37:47.000Z</time>
      </trkpt>
      <trkpt lat="44.98023" lon="1.04884">
        <ele>87</ele>
        <time>2011-08-08T13:37:53.000Z</time>
      </trkpt>
      <trkpt lat="44.98021" lon="1.04827">
        <ele>87.400001525879</ele>
        <time>2011-08-08T13:38:00.000Z</time>
      </trkpt>
      <trkpt lat="44.98016" lon="1.04757">
        <ele>88</ele>
        <time>2011-08-08T13:38:08.000Z</time>
      </trkpt>
      <trkpt lat="44.98021" lon="1.0473">
        <ele>88.199996948242</ele>
        <time>2011-08-08T13:38:12.000Z</time>
      </trkpt>
      <trkpt lat="44.9802" lon="1.04715">
        <ele>88.199996948242</ele>
        <time>2011-08-08T13:38:14.000Z</time>
      </trkpt>
      <trkpt lat="44.98015" lon="1.0469">
        <ele>87.599998474121</ele>
        <time>2011-08-08T13:38:17.000Z</time>
      </trkpt>
      <trkpt lat="44.98003" lon="1.04672">
        <ele>86.199996948242</ele>
        <time>2011-08-08T13:38:21.000Z</time>
      </trkpt>
      <trkpt lat="44.97997" lon="1.04674">
        <ele>85.800003051758</ele>
        <time>2011-08-08T13:38:22.000Z</time>
      </trkpt>
      <trkpt lat="44.97957" lon="1.04682">
        <ele>83.400001525879</ele>
        <time>2011-08-08T13:38:28.000Z</time>
      </trkpt>
      <trkpt lat="44.9795" lon="1.04683">
        <ele>82.800003051758</ele>
        <time>2011-08-08T13:38:29.000Z</time>
      </trkpt>
      <trkpt lat="44.97918" lon="1.0467">
        <ele>81</ele>
        <time>2011-08-08T13:38:33.000Z</time>
      </trkpt>
      <trkpt lat="44.97849" lon="1.04627">
        <ele>72</ele>
        <time>2011-08-08T13:38:41.000Z</time>
      </trkpt>
      <trkpt lat="44.97803" lon="1.04616">
        <ele>68</ele>
        <time>2011-08-08T13:38:46.000Z</time>
      </trkpt>
      <trkpt lat="44.97766" lon="1.04613">
        <ele>65.599998474121</ele>
        <time>2011-08-08T13:38:51.000Z</time>
      </trkpt>
      <trkpt lat="44.97725" lon="1.04611">
        <ele>67</ele>
        <time>2011-08-08T13:38:58.000Z</time>
      </trkpt>
      <trkpt lat="44.97673" lon="1.04609">
        <ele>71.599998474121</ele>
        <time>2011-08-08T13:39:07.000Z</time>
      </trkpt>
      <trkpt lat="44.97649" lon="1.04608">
        <ele>78.199996948242</ele>
        <time>2011-08-08T13:39:11.000Z</time>
      </trkpt>
      <trkpt lat="44.97633" lon="1.04613">
        <ele>84.400001525879</ele>
        <time>2011-08-08T13:39:15.000Z</time>
      </trkpt>
      <trkpt lat="44.97631" lon="1.04614">
        <ele>85</ele>
        <time>2011-08-08T13:39:17.000Z</time>
      </trkpt>
      <trkpt lat="44.9763" lon="1.04627">
        <ele>86.400001525879</ele>
        <time>2011-08-08T13:39:21.000Z</time>
      </trkpt>
      <trkpt lat="44.97636" lon="1.04679">
        <ele>88.199996948242</ele>
        <time>2011-08-08T13:39:29.000Z</time>
      </trkpt>
      <trkpt lat="44.97642" lon="1.0472">
        <ele>87.400001525879</ele>
        <time>2011-08-08T13:39:35.000Z</time>
      </trkpt>
      <trkpt lat="44.97641" lon="1.04769">
        <ele>90.400001525879</ele>
        <time>2011-08-08T13:39:42.000Z</time>
      </trkpt>
      <trkpt lat="44.97641" lon="1.0479">
        <ele>92.199996948242</ele>
        <time>2011-08-08T13:39:45.000Z</time>
      </trkpt>
      <trkpt lat="44.97645" lon="1.04833">
        <ele>94.599998474121</ele>
        <time>2011-08-08T13:39:51.000Z</time>
      </trkpt>
      <trkpt lat="44.97654" lon="1.04861">
        <ele>92.599998474121</ele>
        <time>2011-08-08T13:39:55.000Z</time>
      </trkpt>
      <trkpt lat="44.9767" lon="1.04883">
        <ele>87.800003051758</ele>
        <time>2011-08-08T13:39:58.000Z</time>
      </trkpt>
      <trkpt lat="44.97678" lon="1.04942">
        <ele>88.400001525879</ele>
        <time>2011-08-08T13:40:06.000Z</time>
      </trkpt>
      <trkpt lat="44.97673" lon="1.05">
        <ele>92.599998474121</ele>
        <time>2011-08-08T13:40:14.000Z</time>
      </trkpt>
      <trkpt lat="44.97673" lon="1.05051">
        <ele>97.599998474121</ele>
        <time>2011-08-08T13:40:21.000Z</time>
      </trkpt>
      <trkpt lat="44.97679" lon="1.05115">
        <ele>103</ele>
        <time>2011-08-08T13:40:29.000Z</time>
      </trkpt>
      <trkpt lat="44.97681" lon="1.05133">
        <ele>104.40000152588</ele>
        <time>2011-08-08T13:40:31.000Z</time>
      </trkpt>
      <trkpt lat="44.97696" lon="1.05192">
        <ele>104.40000152588</ele>
        <time>2011-08-08T13:40:38.000Z</time>
      </trkpt>
      <trkpt lat="44.97705" lon="1.05209">
        <ele>101.59999847412</ele>
        <time>2011-08-08T13:40:40.000Z</time>
      </trkpt>
      <trkpt lat="44.97743" lon="1.05275">
        <ele>90.599998474121</ele>
        <time>2011-08-08T13:40:48.000Z</time>
      </trkpt>
      <trkpt lat="44.97773" lon="1.05318">
        <ele>87.199996948242</ele>
        <time>2011-08-08T13:40:53.000Z</time>
      </trkpt>
      <trkpt lat="44.97803" lon="1.05346">
        <ele>80.800003051758</ele>
        <time>2011-08-08T13:40:57.000Z</time>
      </trkpt>
      <trkpt lat="44.9781" lon="1.05354">
        <ele>79.400001525879</ele>
        <time>2011-08-08T13:40:58.000Z</time>
      </trkpt>
      <trkpt lat="44.97836" lon="1.05386">
        <ele>75.800003051758</ele>
        <time>2011-08-08T13:41:03.000Z</time>
      </trkpt>
      <trkpt lat="44.97844" lon="1.05416">
        <ele>79</ele>
        <time>2011-08-08T13:41:07.000Z</time>
      </trkpt>
      <trkpt lat="44.97844" lon="1.05424">
        <ele>80.199996948242</ele>
        <time>2011-08-08T13:41:08.000Z</time>
      </trkpt>
      <trkpt lat="44.97836" lon="1.05453">
        <ele>84.400001525879</ele>
        <time>2011-08-08T13:41:14.000Z</time>
      </trkpt>
      <trkpt lat="44.97834" lon="1.05457">
        <ele>84.800003051758</ele>
        <time>2011-08-08T13:41:15.000Z</time>
      </trkpt>
      <trkpt lat="44.97827" lon="1.05486">
        <ele>90</ele>
        <time>2011-08-08T13:41:22.000Z</time>
      </trkpt>
      <trkpt lat="44.97824" lon="1.05506">
        <ele>92.400001525879</ele>
        <time>2011-08-08T13:41:26.000Z</time>
      </trkpt>
      <trkpt lat="44.9782" lon="1.05526">
        <ele>94.199996948242</ele>
        <time>2011-08-08T13:41:30.000Z</time>
      </trkpt>
      <trkpt lat="44.97808" lon="1.05552">
        <ele>97.599998474121</ele>
        <time>2011-08-08T13:41:35.000Z</time>
      </trkpt>
      <trkpt lat="44.97802" lon="1.05576">
        <ele>99.800003051758</ele>
        <time>2011-08-08T13:41:41.000Z</time>
      </trkpt>
      <trkpt lat="44.97797" lon="1.0559">
        <ele>101.19999694824</ele>
        <time>2011-08-08T13:41:46.000Z</time>
      </trkpt>
      <trkpt lat="44.97791" lon="1.0561">
        <ele>102.40000152588</ele>
        <time>2011-08-08T13:41:51.000Z</time>
      </trkpt>
      <trkpt lat="44.97787" lon="1.05634">
        <ele>103.19999694824</ele>
        <time>2011-08-08T13:41:56.000Z</time>
      </trkpt>
      <trkpt lat="44.9778" lon="1.05653">
        <ele>104</ele>
        <time>2011-08-08T13:42:01.000Z</time>
      </trkpt>
      <trkpt lat="44.97771" lon="1.05671">
        <ele>104.59999847412</ele>
        <time>2011-08-08T13:42:06.000Z</time>
      </trkpt>
      <trkpt lat="44.97767" lon="1.05686">
        <ele>104.59999847412</ele>
        <time>2011-08-08T13:42:10.000Z</time>
      </trkpt>
      <trkpt lat="44.97762" lon="1.05695">
        <ele>104.59999847412</ele>
        <time>2011-08-08T13:42:14.000Z</time>
      </trkpt>
      <trkpt lat="44.97759" lon="1.05699">
        <ele>104.40000152588</ele>
        <time>2011-08-08T13:42:17.000Z</time>
      </trkpt>
      <trkpt lat="44.97754" lon="1.05709">
        <ele>103.80000305176</ele>
        <time>2011-08-08T13:42:21.000Z</time>
      </trkpt>
      <trkpt lat="44.97749" lon="1.05724">
        <ele>103</ele>
        <time>2011-08-08T13:42:25.000Z</time>
      </trkpt>
      <trkpt lat="44.9774" lon="1.05759">
        <ele>103.80000305176</ele>
        <time>2011-08-08T13:42:33.000Z</time>
      </trkpt>
      <trkpt lat="44.97735" lon="1.05777">
        <ele>104.80000305176</ele>
        <time>2011-08-08T13:42:38.000Z</time>
      </trkpt>
      <trkpt lat="44.97728" lon="1.05795">
        <ele>106.19999694824</ele>
        <time>2011-08-08T13:42:43.000Z</time>
      </trkpt>
      <trkpt lat="44.9772" lon="1.05807">
        <ele>107.59999847412</ele>
        <time>2011-08-08T13:42:47.000Z</time>
      </trkpt>
      <trkpt lat="44.97712" lon="1.05823">
        <ele>108.59999847412</ele>
        <time>2011-08-08T13:42:52.000Z</time>
      </trkpt>
      <trkpt lat="44.97707" lon="1.0583">
        <ele>109.19999694824</ele>
        <time>2011-08-08T13:42:54.000Z</time>
      </trkpt>
      <trkpt lat="44.97702" lon="1.0585">
        <ele>109.59999847412</ele>
        <time>2011-08-08T13:42:59.000Z</time>
      </trkpt>
      <trkpt lat="44.97695" lon="1.05872">
        <ele>110</ele>
        <time>2011-08-08T13:43:05.000Z</time>
      </trkpt>
      <trkpt lat="44.97686" lon="1.05894">
        <ele>109.59999847412</ele>
        <time>2011-08-08T13:43:10.000Z</time>
      </trkpt>
      <trkpt lat="44.97678" lon="1.05915">
        <ele>108.59999847412</ele>
        <time>2011-08-08T13:43:14.000Z</time>
      </trkpt>
      <trkpt lat="44.97664" lon="1.0594">
        <ele>108.40000152588</ele>
        <time>2011-08-08T13:43:19.000Z</time>
      </trkpt>
      <trkpt lat="44.97649" lon="1.05974">
        <ele>109.59999847412</ele>
        <time>2011-08-08T13:43:25.000Z</time>
      </trkpt>
      <trkpt lat="44.97637" lon="1.06003">
        <ele>110.19999694824</ele>
        <time>2011-08-08T13:43:30.000Z</time>
      </trkpt>
      <trkpt lat="44.97621" lon="1.06031">
        <ele>112.59999847412</ele>
        <time>2011-08-08T13:43:35.000Z</time>
      </trkpt>
      <trkpt lat="44.97617" lon="1.06037">
        <ele>113</ele>
        <time>2011-08-08T13:43:36.000Z</time>
      </trkpt>
      <trkpt lat="44.97609" lon="1.06068">
        <ele>112.59999847412</ele>
        <time>2011-08-08T13:43:41.000Z</time>
      </trkpt>
      <trkpt lat="44.97599" lon="1.06094">
        <ele>112</ele>
        <time>2011-08-08T13:43:46.000Z</time>
      </trkpt>
      <trkpt lat="44.97596" lon="1.06103">
        <ele>111.80000305176</ele>
        <time>2011-08-08T13:43:48.000Z</time>
      </trkpt>
      <trkpt lat="44.97584" lon="1.0612">
        <ele>111</ele>
        <time>2011-08-08T13:43:53.000Z</time>
      </trkpt>
      <trkpt lat="44.97581" lon="1.06124">
        <ele>111.19999694824</ele>
        <time>2011-08-08T13:43:55.000Z</time>
      </trkpt>
      <trkpt lat="44.97578" lon="1.06144">
        <ele>111</ele>
        <time>2011-08-08T13:44:00.000Z</time>
      </trkpt>
      <trkpt lat="44.97582" lon="1.06167">
        <ele>110</ele>
        <time>2011-08-08T13:44:05.000Z</time>
      </trkpt>
      <trkpt lat="44.97589" lon="1.06196">
        <ele>111.59999847412</ele>
        <time>2011-08-08T13:44:11.000Z</time>
      </trkpt>
      <trkpt lat="44.9759" lon="1.06216">
        <ele>112.19999694824</ele>
        <time>2011-08-08T13:44:15.000Z</time>
      </trkpt>
      <trkpt lat="44.97588" lon="1.06239">
        <ele>112.40000152588</ele>
        <time>2011-08-08T13:44:20.000Z</time>
      </trkpt>
      <trkpt lat="44.97595" lon="1.06276">
        <ele>115</ele>
        <time>2011-08-08T13:44:27.000Z</time>
      </trkpt>
      <trkpt lat="44.97601" lon="1.06303">
        <ele>116.59999847412</ele>
        <time>2011-08-08T13:44:33.000Z</time>
      </trkpt>
      <trkpt lat="44.976" lon="1.06306">
        <ele>116.80000305176</ele>
        <time>2011-08-08T13:44:34.000Z</time>
      </trkpt>
      <trkpt lat="44.97602" lon="1.06313">
        <ele>117.19999694824</ele>
        <time>2011-08-08T13:44:39.000Z</time>
      </trkpt>
      <trkpt lat="44.97612" lon="1.06337">
        <ele>118.59999847412</ele>
        <time>2011-08-08T13:44:48.000Z</time>
      </trkpt>
      <trkpt lat="44.97624" lon="1.06362">
        <ele>119.40000152588</ele>
        <time>2011-08-08T13:44:55.000Z</time>
      </trkpt>
      <trkpt lat="44.97635" lon="1.06382">
        <ele>119.19999694824</ele>
        <time>2011-08-08T13:45:00.000Z</time>
      </trkpt>
      <trkpt lat="44.97641" lon="1.06403">
        <ele>118.40000152588</ele>
        <time>2011-08-08T13:45:05.000Z</time>
      </trkpt>
      <trkpt lat="44.97645" lon="1.06423">
        <ele>118</ele>
        <time>2011-08-08T13:45:10.000Z</time>
      </trkpt>
      <trkpt lat="44.97643" lon="1.06441">
        <ele>119</ele>
        <time>2011-08-08T13:45:15.000Z</time>
      </trkpt>
      <trkpt lat="44.97639" lon="1.06451">
        <ele>119.59999847412</ele>
        <time>2011-08-08T13:45:19.000Z</time>
      </trkpt>
      <trkpt lat="44.9763" lon="1.06467">
        <ele>120.19999694824</ele>
        <time>2011-08-08T13:45:24.000Z</time>
      </trkpt>
      <trkpt lat="44.97621" lon="1.06485">
        <ele>120.80000305176</ele>
        <time>2011-08-08T13:45:30.000Z</time>
      </trkpt>
      <trkpt lat="44.97617" lon="1.06504">
        <ele>121.40000152588</ele>
        <time>2011-08-08T13:45:35.000Z</time>
      </trkpt>
      <trkpt lat="44.97615" lon="1.06529">
        <ele>122.59999847412</ele>
        <time>2011-08-08T13:45:41.000Z</time>
      </trkpt>
      <trkpt lat="44.97615" lon="1.06536">
        <ele>123.19999694824</ele>
        <time>2011-08-08T13:45:43.000Z</time>
      </trkpt>
      <trkpt lat="44.97617" lon="1.06551">
        <ele>124</ele>
        <time>2011-08-08T13:45:48.000Z</time>
      </trkpt>
      <trkpt lat="44.97618" lon="1.06562">
        <ele>124.80000305176</ele>
        <time>2011-08-08T13:45:51.000Z</time>
      </trkpt>
      <trkpt lat="44.97621" lon="1.06588">
        <ele>126.59999847412</ele>
        <time>2011-08-08T13:45:58.000Z</time>
      </trkpt>
      <trkpt lat="44.97627" lon="1.06608">
        <ele>128.39999389648</ele>
        <time>2011-08-08T13:46:04.000Z</time>
      </trkpt>
      <trkpt lat="44.97633" lon="1.06628">
        <ele>129.80000305176</ele>
        <time>2011-08-08T13:46:10.000Z</time>
      </trkpt>
      <trkpt lat="44.97637" lon="1.06645">
        <ele>131</ele>
        <time>2011-08-08T13:46:16.000Z</time>
      </trkpt>
      <trkpt lat="44.97642" lon="1.06666">
        <ele>132.19999694824</ele>
        <time>2011-08-08T13:46:23.000Z</time>
      </trkpt>
      <trkpt lat="44.97644" lon="1.06685">
        <ele>133.39999389648</ele>
        <time>2011-08-08T13:46:29.000Z</time>
      </trkpt>
      <trkpt lat="44.97647" lon="1.067">
        <ele>134.39999389648</ele>
        <time>2011-08-08T13:46:34.000Z</time>
      </trkpt>
      <trkpt lat="44.97653" lon="1.06719">
        <ele>135.39999389648</ele>
        <time>2011-08-08T13:46:41.000Z</time>
      </trkpt>
      <trkpt lat="44.97656" lon="1.06735">
        <ele>136</ele>
        <time>2011-08-08T13:46:47.000Z</time>
      </trkpt>
      <trkpt lat="44.9766" lon="1.06756">
        <ele>136.80000305176</ele>
        <time>2011-08-08T13:46:54.000Z</time>
      </trkpt>
      <trkpt lat="44.97662" lon="1.06774">
        <ele>138</ele>
        <time>2011-08-08T13:47:00.000Z</time>
      </trkpt>
      <trkpt lat="44.97662" lon="1.06796">
        <ele>139.80000305176</ele>
        <time>2011-08-08T13:47:07.000Z</time>
      </trkpt>
      <trkpt lat="44.97661" lon="1.06812">
        <ele>141</ele>
        <time>2011-08-08T13:47:13.000Z</time>
      </trkpt>
      <trkpt lat="44.97664" lon="1.06827">
        <ele>141.80000305176</ele>
        <time>2011-08-08T13:47:19.000Z</time>
      </trkpt>
      <trkpt lat="44.97667" lon="1.06839">
        <ele>142.39999389648</ele>
        <time>2011-08-08T13:47:24.000Z</time>
      </trkpt>
      <trkpt lat="44.9767" lon="1.06866">
        <ele>145.39999389648</ele>
        <time>2011-08-08T13:47:33.000Z</time>
      </trkpt>
      <trkpt lat="44.97673" lon="1.06883">
        <ele>147.39999389648</ele>
        <time>2011-08-08T13:47:39.000Z</time>
      </trkpt>
      <trkpt lat="44.97676" lon="1.069">
        <ele>149.39999389648</ele>
        <time>2011-08-08T13:47:45.000Z</time>
      </trkpt>
      <trkpt lat="44.97678" lon="1.06922">
        <ele>151.60000610352</ele>
        <time>2011-08-08T13:47:53.000Z</time>
      </trkpt>
      <trkpt lat="44.9768" lon="1.06932">
        <ele>152.80000305176</ele>
        <time>2011-08-08T13:47:57.000Z</time>
      </trkpt>
      <trkpt lat="44.97681" lon="1.0695">
        <ele>154.39999389648</ele>
        <time>2011-08-08T13:48:04.000Z</time>
      </trkpt>
      <trkpt lat="44.97683" lon="1.06966">
        <ele>156</ele>
        <time>2011-08-08T13:48:10.000Z</time>
      </trkpt>
      <trkpt lat="44.97688" lon="1.06985">
        <ele>158.19999694824</ele>
        <time>2011-08-08T13:48:16.000Z</time>
      </trkpt>
      <trkpt lat="44.97687" lon="1.07">
        <ele>159.19999694824</ele>
        <time>2011-08-08T13:48:21.000Z</time>
      </trkpt>
      <trkpt lat="44.9769" lon="1.07013">
        <ele>160.60000610352</ele>
        <time>2011-08-08T13:48:26.000Z</time>
      </trkpt>
      <trkpt lat="44.97691" lon="1.07018">
        <ele>161</ele>
        <time>2011-08-08T13:48:28.000Z</time>
      </trkpt>
      <trkpt lat="44.97695" lon="1.07044">
        <ele>163.60000610352</ele>
        <time>2011-08-08T13:48:37.000Z</time>
      </trkpt>
      <trkpt lat="44.97698" lon="1.0706">
        <ele>165</ele>
        <time>2011-08-08T13:48:42.000Z</time>
      </trkpt>
      <trkpt lat="44.97701" lon="1.07075">
        <ele>166.39999389648</ele>
        <time>2011-08-08T13:48:47.000Z</time>
      </trkpt>
      <trkpt lat="44.97705" lon="1.07093">
        <ele>167.80000305176</ele>
        <time>2011-08-08T13:48:53.000Z</time>
      </trkpt>
      <trkpt lat="44.97708" lon="1.07101">
        <ele>168.39999389648</ele>
        <time>2011-08-08T13:48:56.000Z</time>
      </trkpt>
      <trkpt lat="44.97714" lon="1.07114">
        <ele>169.39999389648</ele>
        <time>2011-08-08T13:49:02.000Z</time>
      </trkpt>
      <trkpt lat="44.97718" lon="1.07127">
        <ele>170.19999694824</ele>
        <time>2011-08-08T13:49:08.000Z</time>
      </trkpt>
      <trkpt lat="44.97724" lon="1.07139">
        <ele>171</ele>
        <time>2011-08-08T13:49:13.000Z</time>
      </trkpt>
      <trkpt lat="44.97724" lon="1.07141">
        <ele>171</ele>
        <time>2011-08-08T13:49:14.000Z</time>
      </trkpt>
      <trkpt lat="44.97726" lon="1.07146">
        <ele>171.19999694824</ele>
        <time>2011-08-08T13:49:16.000Z</time>
      </trkpt>
      <trkpt lat="44.97731" lon="1.07158">
        <ele>171.80000305176</ele>
        <time>2011-08-08T13:49:21.000Z</time>
      </trkpt>
      <trkpt lat="44.97736" lon="1.0717">
        <ele>172.19999694824</ele>
        <time>2011-08-08T13:49:26.000Z</time>
      </trkpt>
      <trkpt lat="44.97739" lon="1.07174">
        <ele>172.19999694824</ele>
        <time>2011-08-08T13:49:28.000Z</time>
      </trkpt>
      <trkpt lat="44.97747" lon="1.07197">
        <ele>172.80000305176</ele>
        <time>2011-08-08T13:49:36.000Z</time>
      </trkpt>
      <trkpt lat="44.97753" lon="1.0721">
        <ele>173.60000610352</ele>
        <time>2011-08-08T13:49:41.000Z</time>
      </trkpt>
      <trkpt lat="44.9776" lon="1.07224">
        <ele>175.60000610352</ele>
        <time>2011-08-08T13:49:47.000Z</time>
      </trkpt>
      <trkpt lat="44.97766" lon="1.07216">
        <ele>176.60000610352</ele>
        <time>2011-08-08T13:49:52.000Z</time>
      </trkpt>
      <trkpt lat="44.97767" lon="1.07214">
        <ele>176.80000305176</ele>
        <time>2011-08-08T13:49:53.000Z</time>
      </trkpt>
      <trkpt lat="44.97769" lon="1.07207">
        <ele>177.19999694824</ele>
        <time>2011-08-08T13:49:56.000Z</time>
      </trkpt>
      <trkpt lat="44.97768" lon="1.07191">
        <ele>176.80000305176</ele>
        <time>2011-08-08T13:50:01.000Z</time>
      </trkpt>
      <trkpt lat="44.97765" lon="1.07178">
        <ele>176</ele>
        <time>2011-08-08T13:50:05.000Z</time>
      </trkpt>
      <trkpt lat="44.9776" lon="1.07156">
        <ele>174.39999389648</ele>
        <time>2011-08-08T13:50:10.000Z</time>
      </trkpt>
      <trkpt lat="44.97757" lon="1.0711">
        <ele>172.60000610352</ele>
        <time>2011-08-08T13:50:19.000Z</time>
      </trkpt>
      <trkpt lat="44.97756" lon="1.07075">
        <ele>171.39999389648</ele>
        <time>2011-08-08T13:50:26.000Z</time>
      </trkpt>
      <trkpt lat="44.97763" lon="1.07054">
        <ele>173.39999389648</ele>
        <time>2011-08-08T13:50:31.000Z</time>
      </trkpt>
      <trkpt lat="44.9777" lon="1.0704">
        <ele>175.19999694824</ele>
        <time>2011-08-08T13:50:36.000Z</time>
      </trkpt>
      <trkpt lat="44.97773" lon="1.07022">
        <ele>176.19999694824</ele>
        <time>2011-08-08T13:50:41.000Z</time>
      </trkpt>
      <trkpt lat="44.97778" lon="1.07005">
        <ele>177.39999389648</ele>
        <time>2011-08-08T13:50:46.000Z</time>
      </trkpt>
      <trkpt lat="44.97782" lon="1.06977">
        <ele>178</ele>
        <time>2011-08-08T13:50:53.000Z</time>
      </trkpt>
      <trkpt lat="44.97786" lon="1.06962">
        <ele>179</ele>
        <time>2011-08-08T13:50:57.000Z</time>
      </trkpt>
      <trkpt lat="44.9779" lon="1.06941">
        <ele>179.80000305176</ele>
        <time>2011-08-08T13:51:02.000Z</time>
      </trkpt>
      <trkpt lat="44.97798" lon="1.06912">
        <ele>182</ele>
        <time>2011-08-08T13:51:10.000Z</time>
      </trkpt>
      <trkpt lat="44.97799" lon="1.06908">
        <ele>182</ele>
        <time>2011-08-08T13:51:11.000Z</time>
      </trkpt>
      <trkpt lat="44.97804" lon="1.06892">
        <ele>183.19999694824</ele>
        <time>2011-08-08T13:51:16.000Z</time>
      </trkpt>
      <trkpt lat="44.97812" lon="1.06862">
        <ele>185.19999694824</ele>
        <time>2011-08-08T13:51:24.000Z</time>
      </trkpt>
      <trkpt lat="44.97814" lon="1.06845">
        <ele>185.39999389648</ele>
        <time>2011-08-08T13:51:28.000Z</time>
      </trkpt>
      <trkpt lat="44.97818" lon="1.06825">
        <ele>186.19999694824</ele>
        <time>2011-08-08T13:51:33.000Z</time>
      </trkpt>
      <trkpt lat="44.97818" lon="1.06818">
        <ele>186.39999389648</ele>
        <time>2011-08-08T13:51:35.000Z</time>
      </trkpt>
      <trkpt lat="44.97822" lon="1.06796">
        <ele>187.39999389648</ele>
        <time>2011-08-08T13:51:41.000Z</time>
      </trkpt>
      <trkpt lat="44.97827" lon="1.06792">
        <ele>189</ele>
        <time>2011-08-08T13:51:46.000Z</time>
      </trkpt>
      <trkpt lat="44.97825" lon="1.06806">
        <ele>188.80000305176</ele>
        <time>2011-08-08T13:51:50.000Z</time>
      </trkpt>
      <trkpt lat="44.97825" lon="1.06851">
        <ele>189.39999389648</ele>
        <time>2011-08-08T13:51:59.000Z</time>
      </trkpt>
      <trkpt lat="44.97826" lon="1.06902">
        <ele>191</ele>
        <time>2011-08-08T13:52:08.000Z</time>
      </trkpt>
      <trkpt lat="44.97827" lon="1.06959">
        <ele>192</ele>
        <time>2011-08-08T13:52:18.000Z</time>
      </trkpt>
      <trkpt lat="44.97828" lon="1.06987">
        <ele>192.39999389648</ele>
        <time>2011-08-08T13:52:23.000Z</time>
      </trkpt>
      <trkpt lat="44.97832" lon="1.07038">
        <ele>193.60000610352</ele>
        <time>2011-08-08T13:52:32.000Z</time>
      </trkpt>
      <trkpt lat="44.97839" lon="1.07085">
        <ele>195.19999694824</ele>
        <time>2011-08-08T13:52:41.000Z</time>
      </trkpt>
      <trkpt lat="44.97848" lon="1.07129">
        <ele>197</ele>
        <time>2011-08-08T13:52:50.000Z</time>
      </trkpt>
      <trkpt lat="44.97851" lon="1.07146">
        <ele>197.60000610352</ele>
        <time>2011-08-08T13:52:53.000Z</time>
      </trkpt>
      <trkpt lat="44.97861" lon="1.07183">
        <ele>199.60000610352</ele>
        <time>2011-08-08T13:53:00.000Z</time>
      </trkpt>
      <trkpt lat="44.97872" lon="1.07226">
        <ele>201.80000305176</ele>
        <time>2011-08-08T13:53:08.000Z</time>
      </trkpt>
      <trkpt lat="44.97885" lon="1.07278">
        <ele>205.60000610352</ele>
        <time>2011-08-08T13:53:18.000Z</time>
      </trkpt>
      <trkpt lat="44.97887" lon="1.07334">
        <ele>206.80000305176</ele>
        <time>2011-08-08T13:53:28.000Z</time>
      </trkpt>
      <trkpt lat="44.97884" lon="1.07388">
        <ele>208.80000305176</ele>
        <time>2011-08-08T13:53:38.000Z</time>
      </trkpt>
      <trkpt lat="44.97881" lon="1.07425">
        <ele>209.60000610352</ele>
        <time>2011-08-08T13:53:45.000Z</time>
      </trkpt>
      <trkpt lat="44.97878" lon="1.0747">
        <ele>210.80000305176</ele>
        <time>2011-08-08T13:53:53.000Z</time>
      </trkpt>
      <trkpt lat="44.97872" lon="1.07517">
        <ele>211</ele>
        <time>2011-08-08T13:54:01.000Z</time>
      </trkpt>
      <trkpt lat="44.9787" lon="1.07556">
        <ele>211.19999694824</ele>
        <time>2011-08-08T13:54:08.000Z</time>
      </trkpt>
      <trkpt lat="44.97869" lon="1.07612">
        <ele>212.60000610352</ele>
        <time>2011-08-08T13:54:18.000Z</time>
      </trkpt>
      <trkpt lat="44.9787" lon="1.07649">
        <ele>214.19999694824</ele>
        <time>2011-08-08T13:54:25.000Z</time>
      </trkpt>
      <trkpt lat="44.97879" lon="1.0765">
        <ele>215.19999694824</ele>
        <time>2011-08-08T13:54:29.000Z</time>
      </trkpt>
      <trkpt lat="44.97881" lon="1.07646">
        <ele>215.19999694824</ele>
        <time>2011-08-08T13:54:30.000Z</time>
      </trkpt>
      <trkpt lat="44.97897" lon="1.07609">
        <ele>216.19999694824</ele>
        <time>2011-08-08T13:54:38.000Z</time>
      </trkpt>
      <trkpt lat="44.97901" lon="1.076">
        <ele>216.80000305176</ele>
        <time>2011-08-08T13:54:40.000Z</time>
      </trkpt>
      <trkpt lat="44.97911" lon="1.07601">
        <ele>218.19999694824</ele>
        <time>2011-08-08T13:54:44.000Z</time>
      </trkpt>
      <trkpt lat="44.97907" lon="1.07613">
        <ele>217.60000610352</ele>
        <time>2011-08-08T13:54:47.000Z</time>
      </trkpt>
      <trkpt lat="44.97905" lon="1.07623">
        <ele>217.39999389648</ele>
        <time>2011-08-08T13:54:49.000Z</time>
      </trkpt>
      <trkpt lat="44.97901" lon="1.07656">
        <ele>217.39999389648</ele>
        <time>2011-08-08T13:54:55.000Z</time>
      </trkpt>
      <trkpt lat="44.97901" lon="1.07662">
        <ele>217.39999389648</ele>
        <time>2011-08-08T13:54:56.000Z</time>
      </trkpt>
      <trkpt lat="44.97892" lon="1.07703">
        <ele>216.80000305176</ele>
        <time>2011-08-08T13:55:02.000Z</time>
      </trkpt>
      <trkpt lat="44.9789" lon="1.07708">
        <ele>216.80000305176</ele>
        <time>2011-08-08T13:55:03.000Z</time>
      </trkpt>
      <trkpt lat="44.97873" lon="1.07735">
        <ele>217</ele>
        <time>2011-08-08T13:55:09.000Z</time>
      </trkpt>
      <trkpt lat="44.97867" lon="1.0775">
        <ele>217.60000610352</ele>
        <time>2011-08-08T13:55:14.000Z</time>
      </trkpt>
      <trkpt lat="44.97858" lon="1.07764">
        <ele>218.39999389648</ele>
        <time>2011-08-08T13:55:19.000Z</time>
      </trkpt>
      <trkpt lat="44.97846" lon="1.07788">
        <ele>219.80000305176</ele>
        <time>2011-08-08T13:55:25.000Z</time>
      </trkpt>
      <trkpt lat="44.97832" lon="1.07816">
        <ele>222.19999694824</ele>
        <time>2011-08-08T13:55:32.000Z</time>
      </trkpt>
      <trkpt lat="44.97815" lon="1.07848">
        <ele>224.19999694824</ele>
        <time>2011-08-08T13:55:40.000Z</time>
      </trkpt>
      <trkpt lat="44.97806" lon="1.07874">
        <ele>225.80000305176</ele>
        <time>2011-08-08T13:55:47.000Z</time>
      </trkpt>
      <trkpt lat="44.97801" lon="1.07901">
        <ele>227.60000610352</ele>
        <time>2011-08-08T13:55:54.000Z</time>
      </trkpt>
      <trkpt lat="44.97795" lon="1.07923">
        <ele>229.60000610352</ele>
        <time>2011-08-08T13:56:00.000Z</time>
      </trkpt>
      <trkpt lat="44.97787" lon="1.07957">
        <ele>232.80000305176</ele>
        <time>2011-08-08T13:56:09.000Z</time>
      </trkpt>
      <trkpt lat="44.97781" lon="1.07984">
        <ele>235.80000305176</ele>
        <time>2011-08-08T13:56:17.000Z</time>
      </trkpt>
      <trkpt lat="44.97777" lon="1.08004">
        <ele>237.80000305176</ele>
        <time>2011-08-08T13:56:23.000Z</time>
      </trkpt>
      <trkpt lat="44.9777" lon="1.08026">
        <ele>240</ele>
        <time>2011-08-08T13:56:29.000Z</time>
      </trkpt>
      <trkpt lat="44.97765" lon="1.08053">
        <ele>242</ele>
        <time>2011-08-08T13:56:35.000Z</time>
      </trkpt>
      <trkpt lat="44.97763" lon="1.08076">
        <ele>242.80000305176</ele>
        <time>2011-08-08T13:56:40.000Z</time>
      </trkpt>
      <trkpt lat="44.9776" lon="1.08101">
        <ele>243.80000305176</ele>
        <time>2011-08-08T13:56:45.000Z</time>
      </trkpt>
      <trkpt lat="44.9775" lon="1.08125">
        <ele>245.80000305176</ele>
        <time>2011-08-08T13:56:51.000Z</time>
      </trkpt>
      <trkpt lat="44.97738" lon="1.08151">
        <ele>245.39999389648</ele>
        <time>2011-08-08T13:56:57.000Z</time>
      </trkpt>
      <trkpt lat="44.97725" lon="1.08183">
        <ele>245.39999389648</ele>
        <time>2011-08-08T13:57:04.000Z</time>
      </trkpt>
      <trkpt lat="44.97724" lon="1.0821">
        <ele>246</ele>
        <time>2011-08-08T13:57:09.000Z</time>
      </trkpt>
      <trkpt lat="44.97733" lon="1.08242">
        <ele>246.80000305176</ele>
        <time>2011-08-08T13:57:15.000Z</time>
      </trkpt>
      <trkpt lat="44.97741" lon="1.08271">
        <ele>247.80000305176</ele>
        <time>2011-08-08T13:57:20.000Z</time>
      </trkpt>
      <trkpt lat="44.97746" lon="1.08301">
        <ele>249.19999694824</ele>
        <time>2011-08-08T13:57:25.000Z</time>
      </trkpt>
      <trkpt lat="44.97746" lon="1.0832">
        <ele>250.19999694824</ele>
        <time>2011-08-08T13:57:28.000Z</time>
      </trkpt>
      <trkpt lat="44.97746" lon="1.08361">
        <ele>250.39999389648</ele>
        <time>2011-08-08T13:57:34.000Z</time>
      </trkpt>
      <trkpt lat="44.97748" lon="1.08381">
        <ele>250.19999694824</ele>
        <time>2011-08-08T13:57:37.000Z</time>
      </trkpt>
      <trkpt lat="44.97756" lon="1.08406">
        <ele>249.80000305176</ele>
        <time>2011-08-08T13:57:41.000Z</time>
      </trkpt>
      <trkpt lat="44.9776" lon="1.08422">
        <ele>249.39999389648</ele>
        <time>2011-08-08T13:57:44.000Z</time>
      </trkpt>
      <trkpt lat="44.97765" lon="1.08433">
        <ele>248.39999389648</ele>
        <time>2011-08-08T13:57:46.000Z</time>
      </trkpt>
      <trkpt lat="44.9779" lon="1.08485">
        <ele>245.60000610352</ele>
        <time>2011-08-08T13:57:54.000Z</time>
      </trkpt>
      <trkpt lat="44.97802" lon="1.08511">
        <ele>244.80000305176</ele>
        <time>2011-08-08T13:57:58.000Z</time>
      </trkpt>
      <trkpt lat="44.97828" lon="1.0854">
        <ele>245.60000610352</ele>
        <time>2011-08-08T13:58:04.000Z</time>
      </trkpt>
      <trkpt lat="44.97857" lon="1.08583">
        <ele>248.19999694824</ele>
        <time>2011-08-08T13:58:12.000Z</time>
      </trkpt>
      <trkpt lat="44.97866" lon="1.08598">
        <ele>248.80000305176</ele>
        <time>2011-08-08T13:58:15.000Z</time>
      </trkpt>
      <trkpt lat="44.97874" lon="1.08613">
        <ele>249.39999389648</ele>
        <time>2011-08-08T13:58:18.000Z</time>
      </trkpt>
      <trkpt lat="44.97883" lon="1.08629">
        <ele>250.39999389648</ele>
        <time>2011-08-08T13:58:23.000Z</time>
      </trkpt>
      <trkpt lat="44.97886" lon="1.08638">
        <ele>250.60000610352</ele>
        <time>2011-08-08T13:58:25.000Z</time>
      </trkpt>
      <trkpt lat="44.97905" lon="1.08673">
        <ele>253</ele>
        <time>2011-08-08T13:58:33.000Z</time>
      </trkpt>
      <trkpt lat="44.97918" lon="1.08696">
        <ele>254.60000610352</ele>
        <time>2011-08-08T13:58:39.000Z</time>
      </trkpt>
      <trkpt lat="44.97929" lon="1.08717">
        <ele>255.60000610352</ele>
        <time>2011-08-08T13:58:44.000Z</time>
      </trkpt>
      <trkpt lat="44.97946" lon="1.0874">
        <ele>257.39999389648</ele>
        <time>2011-08-08T13:58:50.000Z</time>
      </trkpt>
      <trkpt lat="44.97957" lon="1.08758">
        <ele>258.60000610352</ele>
        <time>2011-08-08T13:58:54.000Z</time>
      </trkpt>
      <trkpt lat="44.97964" lon="1.08773">
        <ele>259.39999389648</ele>
        <time>2011-08-08T13:58:57.000Z</time>
      </trkpt>
      <trkpt lat="44.97969" lon="1.08788">
        <ele>260</ele>
        <time>2011-08-08T13:59:00.000Z</time>
      </trkpt>
      <trkpt lat="44.97976" lon="1.08808">
        <ele>260.79998779297</ele>
        <time>2011-08-08T13:59:04.000Z</time>
      </trkpt>
      <trkpt lat="44.97982" lon="1.08836">
        <ele>262</ele>
        <time>2011-08-08T13:59:10.000Z</time>
      </trkpt>
      <trkpt lat="44.97983" lon="1.08842">
        <ele>261.79998779297</ele>
        <time>2011-08-08T13:59:11.000Z</time>
      </trkpt>
      <trkpt lat="44.97985" lon="1.08868">
        <ele>261.79998779297</ele>
        <time>2011-08-08T13:59:16.000Z</time>
      </trkpt>
      <trkpt lat="44.97988" lon="1.08903">
        <ele>261.20001220703</ele>
        <time>2011-08-08T13:59:22.000Z</time>
      </trkpt>
      <trkpt lat="44.97997" lon="1.08932">
        <ele>260.79998779297</ele>
        <time>2011-08-08T13:59:28.000Z</time>
      </trkpt>
      <trkpt lat="44.98003" lon="1.08948">
        <ele>259.79998779297</ele>
        <time>2011-08-08T13:59:31.000Z</time>
      </trkpt>
      <trkpt lat="44.98016" lon="1.08984">
        <ele>257</ele>
        <time>2011-08-08T13:59:37.000Z</time>
      </trkpt>
      <trkpt lat="44.98037" lon="1.09009">
        <ele>255.39999389648</ele>
        <time>2011-08-08T13:59:42.000Z</time>
      </trkpt>
      <trkpt lat="44.98078" lon="1.09042">
        <ele>256.79998779297</ele>
        <time>2011-08-08T13:59:49.000Z</time>
      </trkpt>
      <trkpt lat="44.98099" lon="1.09059">
        <ele>255.60000610352</ele>
        <time>2011-08-08T13:59:53.000Z</time>
      </trkpt>
      <trkpt lat="44.98107" lon="1.0906">
        <ele>254.39999389648</ele>
        <time>2011-08-08T13:59:56.000Z</time>
      </trkpt>
      <trkpt lat="44.98112" lon="1.09063">
        <ele>253.80000305176</ele>
        <time>2011-08-08T13:59:58.000Z</time>
      </trkpt>
      <trkpt lat="44.98122" lon="1.09062">
        <ele>252.39999389648</ele>
        <time>2011-08-08T14:00:00.000Z</time>
      </trkpt>
      <trkpt lat="44.98147" lon="1.0907">
        <ele>248.80000305176</ele>
        <time>2011-08-08T14:00:04.000Z</time>
      </trkpt>
      <trkpt lat="44.98189" lon="1.09085">
        <ele>244.39999389648</ele>
        <time>2011-08-08T14:00:09.000Z</time>
      </trkpt>
      <trkpt lat="44.98213" lon="1.09095">
        <ele>243</ele>
        <time>2011-08-08T14:00:12.000Z</time>
      </trkpt>
      <trkpt lat="44.98237" lon="1.09109">
        <ele>241.80000305176</ele>
        <time>2011-08-08T14:00:16.000Z</time>
      </trkpt>
      <trkpt lat="44.98256" lon="1.0911">
        <ele>240.60000610352</ele>
        <time>2011-08-08T14:00:18.000Z</time>
      </trkpt>
      <trkpt lat="44.98299" lon="1.09113">
        <ele>241.39999389648</ele>
        <time>2011-08-08T14:00:23.000Z</time>
      </trkpt>
      <trkpt lat="44.98321" lon="1.09107">
        <ele>240.80000305176</ele>
        <time>2011-08-08T14:00:27.000Z</time>
      </trkpt>
      <trkpt lat="44.98338" lon="1.09104">
        <ele>241</ele>
        <time>2011-08-08T14:00:30.000Z</time>
      </trkpt>
      <trkpt lat="44.98359" lon="1.09091">
        <ele>241.60000610352</ele>
        <time>2011-08-08T14:00:36.000Z</time>
      </trkpt>
      <trkpt lat="44.98374" lon="1.09081">
        <ele>242</ele>
        <time>2011-08-08T14:00:42.000Z</time>
      </trkpt>
      <trkpt lat="44.98389" lon="1.09076">
        <ele>243.19999694824</ele>
        <time>2011-08-08T14:00:48.000Z</time>
      </trkpt>
      <trkpt lat="44.98399" lon="1.09067">
        <ele>243.39999389648</ele>
        <time>2011-08-08T14:00:53.000Z</time>
      </trkpt>
      <trkpt lat="44.98412" lon="1.09062">
        <ele>244.39999389648</ele>
        <time>2011-08-08T14:00:57.000Z</time>
      </trkpt>
      <trkpt lat="44.98423" lon="1.09061">
        <ele>245.39999389648</ele>
        <time>2011-08-08T14:01:01.000Z</time>
      </trkpt>
      <trkpt lat="44.98438" lon="1.09057">
        <ele>246.60000610352</ele>
        <time>2011-08-08T14:01:06.000Z</time>
      </trkpt>
      <trkpt lat="44.98456" lon="1.0905">
        <ele>247.80000305176</ele>
        <time>2011-08-08T14:01:12.000Z</time>
      </trkpt>
      <trkpt lat="44.98477" lon="1.09039">
        <ele>249.19999694824</ele>
        <time>2011-08-08T14:01:18.000Z</time>
      </trkpt>
      <trkpt lat="44.98497" lon="1.0902">
        <ele>250</ele>
        <time>2011-08-08T14:01:24.000Z</time>
      </trkpt>
      <trkpt lat="44.98509" lon="1.09008">
        <ele>249.80000305176</ele>
        <time>2011-08-08T14:01:29.000Z</time>
      </trkpt>
      <trkpt lat="44.98524" lon="1.08994">
        <ele>249.19999694824</ele>
        <time>2011-08-08T14:01:35.000Z</time>
      </trkpt>
      <trkpt lat="44.98542" lon="1.08973">
        <ele>248.80000305176</ele>
        <time>2011-08-08T14:01:43.000Z</time>
      </trkpt>
      <trkpt lat="44.9855" lon="1.08961">
        <ele>249</ele>
        <time>2011-08-08T14:01:47.000Z</time>
      </trkpt>
      <trkpt lat="44.98566" lon="1.08937">
        <ele>250.19999694824</ele>
        <time>2011-08-08T14:01:53.000Z</time>
      </trkpt>
      <trkpt lat="44.98578" lon="1.08914">
        <ele>252</ele>
        <time>2011-08-08T14:01:58.000Z</time>
      </trkpt>
      <trkpt lat="44.98591" lon="1.08881">
        <ele>252.39999389648</ele>
        <time>2011-08-08T14:02:04.000Z</time>
      </trkpt>
      <trkpt lat="44.98609" lon="1.08834">
        <ele>252.39999389648</ele>
        <time>2011-08-08T14:02:13.000Z</time>
      </trkpt>
      <trkpt lat="44.98627" lon="1.08791">
        <ele>251.80000305176</ele>
        <time>2011-08-08T14:02:22.000Z</time>
      </trkpt>
      <trkpt lat="44.98643" lon="1.08757">
        <ele>252</ele>
        <time>2011-08-08T14:02:29.000Z</time>
      </trkpt>
      <trkpt lat="44.98655" lon="1.08738">
        <ele>251.80000305176</ele>
        <time>2011-08-08T14:02:33.000Z</time>
      </trkpt>
      <trkpt lat="44.98666" lon="1.08722">
        <ele>251.19999694824</ele>
        <time>2011-08-08T14:02:36.000Z</time>
      </trkpt>
      <trkpt lat="44.9869" lon="1.08672">
        <ele>247.19999694824</ele>
        <time>2011-08-08T14:02:43.000Z</time>
      </trkpt>
      <trkpt lat="44.98711" lon="1.08621">
        <ele>242.19999694824</ele>
        <time>2011-08-08T14:02:49.000Z</time>
      </trkpt>
      <trkpt lat="44.9873" lon="1.08585">
        <ele>240.19999694824</ele>
        <time>2011-08-08T14:02:53.000Z</time>
      </trkpt>
      <trkpt lat="44.98767" lon="1.08549">
        <ele>234.39999389648</ele>
        <time>2011-08-08T14:02:58.000Z</time>
      </trkpt>
      <trkpt lat="44.98791" lon="1.08534">
        <ele>232</ele>
        <time>2011-08-08T14:03:01.000Z</time>
      </trkpt>
      <trkpt lat="44.98825" lon="1.08515">
        <ele>230.80000305176</ele>
        <time>2011-08-08T14:03:05.000Z</time>
      </trkpt>
      <trkpt lat="44.98853" lon="1.08514">
        <ele>228.19999694824</ele>
        <time>2011-08-08T14:03:08.000Z</time>
      </trkpt>
      <trkpt lat="44.98891" lon="1.08506">
        <ele>223.80000305176</ele>
        <time>2011-08-08T14:03:12.000Z</time>
      </trkpt>
      <trkpt lat="44.98931" lon="1.0848">
        <ele>218.60000610352</ele>
        <time>2011-08-08T14:03:17.000Z</time>
      </trkpt>
      <trkpt lat="44.98961" lon="1.08466">
        <ele>215.19999694824</ele>
        <time>2011-08-08T14:03:20.000Z</time>
      </trkpt>
      <trkpt lat="44.98999" lon="1.08448">
        <ele>211.19999694824</ele>
        <time>2011-08-08T14:03:24.000Z</time>
      </trkpt>
      <trkpt lat="44.99009" lon="1.08443">
        <ele>209.80000305176</ele>
        <time>2011-08-08T14:03:26.000Z</time>
      </trkpt>
      <trkpt lat="44.9901" lon="1.08442">
        <ele>209.80000305176</ele>
        <time>2011-08-08T14:03:29.000Z</time>
      </trkpt>
      <trkpt lat="44.99008" lon="1.08436">
        <ele>209.80000305176</ele>
        <time>2011-08-08T14:10:55.000Z</time>
      </trkpt>
      <trkpt lat="44.99029" lon="1.08439">
        <ele>207.80000305176</ele>
        <time>2011-08-08T14:10:59.000Z</time>
      </trkpt>
      <trkpt lat="44.99041" lon="1.08444">
        <ele>206.80000305176</ele>
        <time>2011-08-08T14:11:01.000Z</time>
      </trkpt>
      <trkpt lat="44.99078" lon="1.08449">
        <ele>203.19999694824</ele>
        <time>2011-08-08T14:11:06.000Z</time>
      </trkpt>
      <trkpt lat="44.99112" lon="1.08445">
        <ele>199.19999694824</ele>
        <time>2011-08-08T14:11:10.000Z</time>
      </trkpt>
      <trkpt lat="44.99132" lon="1.08448">
        <ele>197</ele>
        <time>2011-08-08T14:11:13.000Z</time>
      </trkpt>
      <trkpt lat="44.9917" lon="1.08444">
        <ele>192.60000610352</ele>
        <time>2011-08-08T14:11:18.000Z</time>
      </trkpt>
      <trkpt lat="44.99193" lon="1.08452">
        <ele>190</ele>
        <time>2011-08-08T14:11:21.000Z</time>
      </trkpt>
      <trkpt lat="44.99224" lon="1.08453">
        <ele>186.39999389648</ele>
        <time>2011-08-08T14:11:25.000Z</time>
      </trkpt>
      <trkpt lat="44.99247" lon="1.08439">
        <ele>184.39999389648</ele>
        <time>2011-08-08T14:11:28.000Z</time>
      </trkpt>
      <trkpt lat="44.99275" lon="1.08414">
        <ele>181.19999694824</ele>
        <time>2011-08-08T14:11:32.000Z</time>
      </trkpt>
      <trkpt lat="44.99317" lon="1.08381">
        <ele>172.60000610352</ele>
        <time>2011-08-08T14:11:38.000Z</time>
      </trkpt>
      <trkpt lat="44.99323" lon="1.08375">
        <ele>171.60000610352</ele>
        <time>2011-08-08T14:11:39.000Z</time>
      </trkpt>
      <trkpt lat="44.99358" lon="1.08354">
        <ele>164.80000305176</ele>
        <time>2011-08-08T14:11:44.000Z</time>
      </trkpt>
      <trkpt lat="44.99399" lon="1.08315">
        <ele>156</ele>
        <time>2011-08-08T14:11:51.000Z</time>
      </trkpt>
      <trkpt lat="44.99412" lon="1.08305">
        <ele>153.39999389648</ele>
        <time>2011-08-08T14:11:53.000Z</time>
      </trkpt>
      <trkpt lat="44.99443" lon="1.08268">
        <ele>145.19999694824</ele>
        <time>2011-08-08T14:11:59.000Z</time>
      </trkpt>
      <trkpt lat="44.99455" lon="1.08258">
        <ele>143</ele>
        <time>2011-08-08T14:12:01.000Z</time>
      </trkpt>
      <trkpt lat="44.99479" lon="1.08231">
        <ele>138.80000305176</ele>
        <time>2011-08-08T14:12:05.000Z</time>
      </trkpt>
      <trkpt lat="44.99511" lon="1.08197">
        <ele>133</ele>
        <time>2011-08-08T14:12:10.000Z</time>
      </trkpt>
      <trkpt lat="44.99526" lon="1.08175">
        <ele>129.19999694824</ele>
        <time>2011-08-08T14:12:14.000Z</time>
      </trkpt>
      <trkpt lat="44.99527" lon="1.08174">
        <ele>129</ele>
        <time>2011-08-08T14:12:17.000Z</time>
      </trkpt>
      <trkpt lat="44.99522" lon="1.08175">
        <ele>129.80000305176</ele>
        <time>2011-08-08T14:12:24.000Z</time>
      </trkpt>
      <trkpt lat="44.9952" lon="1.08175">
        <ele>130.39999389648</ele>
        <time>2011-08-08T14:12:28.000Z</time>
      </trkpt>
      <trkpt lat="44.99507" lon="1.08166">
        <ele>132.60000610352</ele>
        <time>2011-08-08T14:12:34.000Z</time>
      </trkpt>
      <trkpt lat="44.9949" lon="1.08156">
        <ele>132.80000305176</ele>
        <time>2011-08-08T14:12:38.000Z</time>
      </trkpt>
      <trkpt lat="44.99457" lon="1.08144">
        <ele>131.60000610352</ele>
        <time>2011-08-08T14:12:45.000Z</time>
      </trkpt>
      <trkpt lat="44.99423" lon="1.08135">
        <ele>130.80000305176</ele>
        <time>2011-08-08T14:12:51.000Z</time>
      </trkpt>
      <trkpt lat="44.99377" lon="1.08132">
        <ele>132</ele>
        <time>2011-08-08T14:12:58.000Z</time>
      </trkpt>
      <trkpt lat="44.99352" lon="1.08137">
        <ele>133.39999389648</ele>
        <time>2011-08-08T14:13:02.000Z</time>
      </trkpt>
      <trkpt lat="44.99331" lon="1.08135">
        <ele>134</ele>
        <time>2011-08-08T14:13:06.000Z</time>
      </trkpt>
      <trkpt lat="44.99302" lon="1.08128">
        <ele>135.19999694824</ele>
        <time>2011-08-08T14:13:12.000Z</time>
      </trkpt>
      <trkpt lat="44.99286" lon="1.08123">
        <ele>135.80000305176</ele>
        <time>2011-08-08T14:13:16.000Z</time>
      </trkpt>
      <trkpt lat="44.99273" lon="1.08116">
        <ele>135.80000305176</ele>
        <time>2011-08-08T14:13:19.000Z</time>
      </trkpt>
      <trkpt lat="44.99252" lon="1.08105">
        <ele>135.60000610352</ele>
        <time>2011-08-08T14:13:23.000Z</time>
      </trkpt>
      <trkpt lat="44.99226" lon="1.08091">
        <ele>135.19999694824</ele>
        <time>2011-08-08T14:13:29.000Z</time>
      </trkpt>
      <trkpt lat="44.99218" lon="1.08086">
        <ele>134.80000305176</ele>
        <time>2011-08-08T14:13:31.000Z</time>
      </trkpt>
      <trkpt lat="44.99192" lon="1.08076">
        <ele>134.60000610352</ele>
        <time>2011-08-08T14:13:36.000Z</time>
      </trkpt>
      <trkpt lat="44.99174" lon="1.08066">
        <ele>133.80000305176</ele>
        <time>2011-08-08T14:13:40.000Z</time>
      </trkpt>
      <trkpt lat="44.99163" lon="1.08066">
        <ele>134.19999694824</ele>
        <time>2011-08-08T14:13:42.000Z</time>
      </trkpt>
      <trkpt lat="44.99152" lon="1.08068">
        <ele>134.80000305176</ele>
        <time>2011-08-08T14:13:44.000Z</time>
      </trkpt>
      <trkpt lat="44.99132" lon="1.08069">
        <ele>135.60000610352</ele>
        <time>2011-08-08T14:13:48.000Z</time>
      </trkpt>
      <trkpt lat="44.99122" lon="1.08071">
        <ele>136.19999694824</ele>
        <time>2011-08-08T14:13:50.000Z</time>
      </trkpt>
      <trkpt lat="44.99096" lon="1.08076">
        <ele>137.60000610352</ele>
        <time>2011-08-08T14:13:56.000Z</time>
      </trkpt>
      <trkpt lat="44.9908" lon="1.08071">
        <ele>138</ele>
        <time>2011-08-08T14:14:01.000Z</time>
      </trkpt>
      <trkpt lat="44.99065" lon="1.08062">
        <ele>139.80000305176</ele>
        <time>2011-08-08T14:14:06.000Z</time>
      </trkpt>
      <trkpt lat="44.99051" lon="1.08046">
        <ele>140.19999694824</ele>
        <time>2011-08-08T14:14:11.000Z</time>
      </trkpt>
      <trkpt lat="44.99046" lon="1.08034">
        <ele>139.19999694824</ele>
        <time>2011-08-08T14:14:14.000Z</time>
      </trkpt>
      <trkpt lat="44.99051" lon="1.08008">
        <ele>134.80000305176</ele>
        <time>2011-08-08T14:14:18.000Z</time>
      </trkpt>
      <trkpt lat="44.9906" lon="1.07981">
        <ele>129.80000305176</ele>
        <time>2011-08-08T14:14:21.000Z</time>
      </trkpt>
      <trkpt lat="44.99064" lon="1.07947">
        <ele>124.80000305176</ele>
        <time>2011-08-08T14:14:25.000Z</time>
      </trkpt>
      <trkpt lat="44.99054" lon="1.07934">
        <ele>124.40000152588</ele>
        <time>2011-08-08T14:14:29.000Z</time>
      </trkpt>
      <trkpt lat="44.99046" lon="1.07923">
        <ele>124</ele>
        <time>2011-08-08T14:14:32.000Z</time>
      </trkpt>
      <trkpt lat="44.99027" lon="1.07892">
        <ele>123.19999694824</ele>
        <time>2011-08-08T14:14:37.000Z</time>
      </trkpt>
      <trkpt lat="44.98998" lon="1.07851">
        <ele>122.40000152588</ele>
        <time>2011-08-08T14:14:44.000Z</time>
      </trkpt>
      <trkpt lat="44.98984" lon="1.07838">
        <ele>124</ele>
        <time>2011-08-08T14:14:48.000Z</time>
      </trkpt>
      <trkpt lat="44.9897" lon="1.07825">
        <ele>126</ele>
        <time>2011-08-08T14:14:54.000Z</time>
      </trkpt>
      <trkpt lat="44.98953" lon="1.07805">
        <ele>128.60000610352</ele>
        <time>2011-08-08T14:15:01.000Z</time>
      </trkpt>
      <trkpt lat="44.98933" lon="1.07779">
        <ele>132</ele>
        <time>2011-08-08T14:15:09.000Z</time>
      </trkpt>
      <trkpt lat="44.98915" lon="1.07755">
        <ele>135.19999694824</ele>
        <time>2011-08-08T14:15:16.000Z</time>
      </trkpt>
      <trkpt lat="44.98899" lon="1.07747">
        <ele>136.19999694824</ele>
        <time>2011-08-08T14:15:21.000Z</time>
      </trkpt>
      <trkpt lat="44.98887" lon="1.07754">
        <ele>137.19999694824</ele>
        <time>2011-08-08T14:15:25.000Z</time>
      </trkpt>
      <trkpt lat="44.98877" lon="1.07773">
        <ele>138.60000610352</ele>
        <time>2011-08-08T14:15:30.000Z</time>
      </trkpt>
      <trkpt lat="44.98867" lon="1.07775">
        <ele>139.39999389648</ele>
        <time>2011-08-08T14:15:34.000Z</time>
      </trkpt>
      <trkpt lat="44.98864" lon="1.07763">
        <ele>139.19999694824</ele>
        <time>2011-08-08T14:15:37.000Z</time>
      </trkpt>
      <trkpt lat="44.98858" lon="1.07753">
        <ele>139.19999694824</ele>
        <time>2011-08-08T14:15:41.000Z</time>
      </trkpt>
      <trkpt lat="44.98841" lon="1.07752">
        <ele>140.39999389648</ele>
        <time>2011-08-08T14:15:44.000Z</time>
      </trkpt>
      <trkpt lat="44.98835" lon="1.07749">
        <ele>140.80000305176</ele>
        <time>2011-08-08T14:15:45.000Z</time>
      </trkpt>
      <trkpt lat="44.98811" lon="1.07732">
        <ele>140.80000305176</ele>
        <time>2011-08-08T14:15:49.000Z</time>
      </trkpt>
      <trkpt lat="44.98779" lon="1.07692">
        <ele>138.39999389648</ele>
        <time>2011-08-08T14:15:55.000Z</time>
      </trkpt>
      <trkpt lat="44.98745" lon="1.07642">
        <ele>134.80000305176</ele>
        <time>2011-08-08T14:16:01.000Z</time>
      </trkpt>
      <trkpt lat="44.98729" lon="1.07621">
        <ele>135.39999389648</ele>
        <time>2011-08-08T14:16:04.000Z</time>
      </trkpt>
      <trkpt lat="44.98718" lon="1.076">
        <ele>134.60000610352</ele>
        <time>2011-08-08T14:16:07.000Z</time>
      </trkpt>
      <trkpt lat="44.98703" lon="1.07579">
        <ele>132.19999694824</ele>
        <time>2011-08-08T14:16:11.000Z</time>
      </trkpt>
      <trkpt lat="44.9869" lon="1.07563">
        <ele>130.19999694824</ele>
        <time>2011-08-08T14:16:15.000Z</time>
      </trkpt>
      <trkpt lat="44.9867" lon="1.07531">
        <ele>125.19999694824</ele>
        <time>2011-08-08T14:16:19.000Z</time>
      </trkpt>
      <trkpt lat="44.9866" lon="1.07494">
        <ele>122.19999694824</ele>
        <time>2011-08-08T14:16:22.000Z</time>
      </trkpt>
      <trkpt lat="44.98644" lon="1.07448">
        <ele>118.19999694824</ele>
        <time>2011-08-08T14:16:26.000Z</time>
      </trkpt>
      <trkpt lat="44.98631" lon="1.07414">
        <ele>113.59999847412</ele>
        <time>2011-08-08T14:16:29.000Z</time>
      </trkpt>
      <trkpt lat="44.98621" lon="1.07383">
        <ele>111</ele>
        <time>2011-08-08T14:16:31.000Z</time>
      </trkpt>
      <trkpt lat="44.98612" lon="1.07356">
        <ele>109.59999847412</ele>
        <time>2011-08-08T14:16:34.000Z</time>
      </trkpt>
      <trkpt lat="44.98622" lon="1.07328">
        <ele>110.59999847412</ele>
        <time>2011-08-08T14:16:38.000Z</time>
      </trkpt>
      <trkpt lat="44.9864" lon="1.07291">
        <ele>110.19999694824</ele>
        <time>2011-08-08T14:16:43.000Z</time>
      </trkpt>
      <trkpt lat="44.9866" lon="1.07243">
        <ele>104.80000305176</ele>
        <time>2011-08-08T14:16:49.000Z</time>
      </trkpt>
      <trkpt lat="44.98681" lon="1.07202">
        <ele>104.80000305176</ele>
        <time>2011-08-08T14:16:54.000Z</time>
      </trkpt>
      <trkpt lat="44.98685" lon="1.07194">
        <ele>104.80000305176</ele>
        <time>2011-08-08T14:16:55.000Z</time>
      </trkpt>
      <trkpt lat="44.98693" lon="1.07179">
        <ele>104.59999847412</ele>
        <time>2011-08-08T14:16:57.000Z</time>
      </trkpt>
      <trkpt lat="44.98716" lon="1.0716">
        <ele>105</ele>
        <time>2011-08-08T14:17:01.000Z</time>
      </trkpt>
      <trkpt lat="44.98738" lon="1.07148">
        <ele>105.59999847412</ele>
        <time>2011-08-08T14:17:04.000Z</time>
      </trkpt>
      <trkpt lat="44.98758" lon="1.07123">
        <ele>104.59999847412</ele>
        <time>2011-08-08T14:17:10.000Z</time>
      </trkpt>
      <trkpt lat="44.98774" lon="1.07104">
        <ele>103</ele>
        <time>2011-08-08T14:17:15.000Z</time>
      </trkpt>
      <trkpt lat="44.9879" lon="1.0709">
        <ele>101</ele>
        <time>2011-08-08T14:17:20.000Z</time>
      </trkpt>
      <trkpt lat="44.98792" lon="1.07082">
        <ele>100.19999694824</ele>
        <time>2011-08-08T14:17:23.000Z</time>
      </trkpt>
      <trkpt lat="44.9878" lon="1.07073">
        <ele>102.59999847412</ele>
        <time>2011-08-08T14:17:27.000Z</time>
      </trkpt>
      <trkpt lat="44.9878" lon="1.07068">
        <ele>103.40000152588</ele>
        <time>2011-08-08T14:17:30.000Z</time>
      </trkpt>
      <trkpt lat="44.9878" lon="1.07069">
        <ele>103.40000152588</ele>
        <time>2011-08-08T14:17:31.000Z</time>
      </trkpt>
      <trkpt lat="44.98794" lon="1.07062">
        <ele>103.40000152588</ele>
        <time>2011-08-08T14:17:35.000Z</time>
      </trkpt>
      <trkpt lat="44.98796" lon="1.07056">
        <ele>104</ele>
        <time>2011-08-08T14:17:36.000Z</time>
      </trkpt>
      <trkpt lat="44.98808" lon="1.07047">
        <ele>104.19999694824</ele>
        <time>2011-08-08T14:17:41.000Z</time>
      </trkpt>
      <trkpt lat="44.98813" lon="1.0705">
        <ele>103.19999694824</ele>
        <time>2011-08-08T14:17:46.000Z</time>
      </trkpt>
      <trkpt lat="44.98816" lon="1.07043">
        <ele>103.59999847412</ele>
        <time>2011-08-08T14:17:51.000Z</time>
      </trkpt>
      <trkpt lat="44.98821" lon="1.07039">
        <ele>103.40000152588</ele>
        <time>2011-08-08T14:17:53.000Z</time>
      </trkpt>
      <trkpt lat="44.98826" lon="1.07036">
        <ele>103</ele>
        <time>2011-08-08T14:17:55.000Z</time>
      </trkpt>
      <trkpt lat="44.9884" lon="1.07028">
        <ele>101.19999694824</ele>
        <time>2011-08-08T14:18:00.000Z</time>
      </trkpt>
      <trkpt lat="44.98843" lon="1.07027">
        <ele>101</ele>
        <time>2011-08-08T14:18:01.000Z</time>
      </trkpt>
      <trkpt lat="44.98846" lon="1.07024">
        <ele>100.40000152588</ele>
        <time>2011-08-08T14:18:03.000Z</time>
      </trkpt>
      <trkpt lat="44.9885" lon="1.07008">
        <ele>100.59999847412</ele>
        <time>2011-08-08T14:18:08.000Z</time>
      </trkpt>
      <trkpt lat="44.9885" lon="1.07005">
        <ele>100.59999847412</ele>
        <time>2011-08-08T14:18:09.000Z</time>
      </trkpt>
      <trkpt lat="44.98858" lon="1.06992">
        <ele>100.80000305176</ele>
        <time>2011-08-08T14:18:15.000Z</time>
      </trkpt>
      <trkpt lat="44.98862" lon="1.06989">
        <ele>100.59999847412</ele>
        <time>2011-08-08T14:18:16.000Z</time>
      </trkpt>
      <trkpt lat="44.98898" lon="1.06949">
        <ele>100.80000305176</ele>
        <time>2011-08-08T14:18:23.000Z</time>
      </trkpt>
      <trkpt lat="44.98918" lon="1.06926">
        <ele>100.59999847412</ele>
        <time>2011-08-08T14:18:26.000Z</time>
      </trkpt>
      <trkpt lat="44.98931" lon="1.06854">
        <ele>110.40000152588</ele>
        <time>2011-08-08T14:18:32.000Z</time>
      </trkpt>
      <trkpt lat="44.98933" lon="1.06843">
        <ele>111.59999847412</ele>
        <time>2011-08-08T14:18:33.000Z</time>
      </trkpt>
      <trkpt lat="44.98937" lon="1.06807">
        <ele>113.40000152588</ele>
        <time>2011-08-08T14:18:37.000Z</time>
      </trkpt>
      <trkpt lat="44.98936" lon="1.06803">
        <ele>114.19999694824</ele>
        <time>2011-08-08T14:18:38.000Z</time>
      </trkpt>
      <trkpt lat="44.98933" lon="1.06802">
        <ele>116.19999694824</ele>
        <time>2011-08-08T14:18:45.000Z</time>
      </trkpt>
      <trkpt lat="44.98932" lon="1.06802">
        <ele>116.80000305176</ele>
        <time>2011-08-08T14:18:46.000Z</time>
      </trkpt>
      <trkpt lat="44.98933" lon="1.06794">
        <ele>116.59999847412</ele>
        <time>2011-08-08T14:18:50.000Z</time>
      </trkpt>
      <trkpt lat="44.98939" lon="1.06777">
        <ele>114.40000152588</ele>
        <time>2011-08-08T14:18:54.000Z</time>
      </trkpt>
      <trkpt lat="44.98948" lon="1.06738">
        <ele>110.80000305176</ele>
        <time>2011-08-08T14:19:00.000Z</time>
      </trkpt>
      <trkpt lat="44.98953" lon="1.06717">
        <ele>109</ele>
        <time>2011-08-08T14:19:03.000Z</time>
      </trkpt>
      <trkpt lat="44.98957" lon="1.06695">
        <ele>107.40000152588</ele>
        <time>2011-08-08T14:19:06.000Z</time>
      </trkpt>
      <trkpt lat="44.9898" lon="1.06634">
        <ele>102.59999847412</ele>
        <time>2011-08-08T14:19:14.000Z</time>
      </trkpt>
      <trkpt lat="44.98999" lon="1.06566">
        <ele>109.19999694824</ele>
        <time>2011-08-08T14:19:22.000Z</time>
      </trkpt>
      <trkpt lat="44.99016" lon="1.06502">
        <ele>109.80000305176</ele>
        <time>2011-08-08T14:19:29.000Z</time>
      </trkpt>
      <trkpt lat="44.99028" lon="1.06436">
        <ele>100.80000305176</ele>
        <time>2011-08-08T14:19:36.000Z</time>
      </trkpt>
      <trkpt lat="44.99041" lon="1.06379">
        <ele>91</ele>
        <time>2011-08-08T14:19:42.000Z</time>
      </trkpt>
      <trkpt lat="44.99042" lon="1.06369">
        <ele>89.800003051758</ele>
        <time>2011-08-08T14:19:43.000Z</time>
      </trkpt>
      <trkpt lat="44.99058" lon="1.06295">
        <ele>81</ele>
        <time>2011-08-08T14:19:51.000Z</time>
      </trkpt>
      <trkpt lat="44.9906" lon="1.06277">
        <ele>80.199996948242</ele>
        <time>2011-08-08T14:19:53.000Z</time>
      </trkpt>
      <trkpt lat="44.99059" lon="1.06219">
        <ele>78.599998474121</ele>
        <time>2011-08-08T14:20:00.000Z</time>
      </trkpt>
      <trkpt lat="44.99058" lon="1.06212">
        <ele>78.400001525879</ele>
        <time>2011-08-08T14:20:01.000Z</time>
      </trkpt>
      <trkpt lat="44.99059" lon="1.06179">
        <ele>76.800003051758</ele>
        <time>2011-08-08T14:20:07.000Z</time>
      </trkpt>
      <trkpt lat="44.99069" lon="1.06165">
        <ele>74.800003051758</ele>
        <time>2011-08-08T14:20:11.000Z</time>
      </trkpt>
      <trkpt lat="44.99084" lon="1.06163">
        <ele>72.800003051758</ele>
        <time>2011-08-08T14:20:15.000Z</time>
      </trkpt>
      <trkpt lat="44.9911" lon="1.06167">
        <ele>70.599998474121</ele>
        <time>2011-08-08T14:20:20.000Z</time>
      </trkpt>
      <trkpt lat="44.99147" lon="1.06168">
        <ele>67.599998474121</ele>
        <time>2011-08-08T14:20:27.000Z</time>
      </trkpt>
      <trkpt lat="44.99201" lon="1.06169">
        <ele>66.800003051758</ele>
        <time>2011-08-08T14:20:35.000Z</time>
      </trkpt>
      <trkpt lat="44.99252" lon="1.06168">
        <ele>68</ele>
        <time>2011-08-08T14:20:42.000Z</time>
      </trkpt>
      <trkpt lat="44.99308" lon="1.06169">
        <ele>69.199996948242</ele>
        <time>2011-08-08T14:20:49.000Z</time>
      </trkpt>
      <trkpt lat="44.99317" lon="1.06169">
        <ele>69.400001525879</ele>
        <time>2011-08-08T14:20:50.000Z</time>
      </trkpt>
      <trkpt lat="44.99349" lon="1.06183">
        <ele>70.599998474121</ele>
        <time>2011-08-08T14:20:54.000Z</time>
      </trkpt>
      <trkpt lat="44.99367" lon="1.06209">
        <ele>71.199996948242</ele>
        <time>2011-08-08T14:20:57.000Z</time>
      </trkpt>
      <trkpt lat="44.99375" lon="1.06242">
        <ele>71.400001525879</ele>
        <time>2011-08-08T14:21:00.000Z</time>
      </trkpt>
      <trkpt lat="44.99376" lon="1.06253">
        <ele>71.599998474121</ele>
        <time>2011-08-08T14:21:01.000Z</time>
      </trkpt>
      <trkpt lat="44.99375" lon="1.06316">
        <ele>72.599998474121</ele>
        <time>2011-08-08T14:21:07.000Z</time>
      </trkpt>
      <trkpt lat="44.99362" lon="1.06361">
        <ele>72.800003051758</ele>
        <time>2011-08-08T14:21:12.000Z</time>
      </trkpt>
      <trkpt lat="44.99333" lon="1.06436">
        <ele>72.800003051758</ele>
        <time>2011-08-08T14:21:21.000Z</time>
      </trkpt>
      <trkpt lat="44.99327" lon="1.06452">
        <ele>73.199996948242</ele>
        <time>2011-08-08T14:21:23.000Z</time>
      </trkpt>
      <trkpt lat="44.99353" lon="1.0649">
        <ele>76.199996948242</ele>
        <time>2011-08-08T14:21:32.000Z</time>
      </trkpt>
      <trkpt lat="44.99361" lon="1.06539">
        <ele>77.800003051758</ele>
        <time>2011-08-08T14:21:41.000Z</time>
      </trkpt>
      <trkpt lat="44.99346" lon="1.06581">
        <ele>78.400001525879</ele>
        <time>2011-08-08T14:21:48.000Z</time>
      </trkpt>
      <trkpt lat="44.99341" lon="1.06599">
        <ele>78.599998474121</ele>
        <time>2011-08-08T14:21:51.000Z</time>
      </trkpt>
      <trkpt lat="44.99343" lon="1.06625">
        <ele>79.199996948242</ele>
        <time>2011-08-08T14:21:55.000Z</time>
      </trkpt>
      <trkpt lat="44.99346" lon="1.06631">
        <ele>79.599998474121</ele>
        <time>2011-08-08T14:21:56.000Z</time>
      </trkpt>
      <trkpt lat="44.99357" lon="1.06646">
        <ele>80.199996948242</ele>
        <time>2011-08-08T14:21:59.000Z</time>
      </trkpt>
      <trkpt lat="44.99385" lon="1.06693">
        <ele>82.400001525879</ele>
        <time>2011-08-08T14:22:08.000Z</time>
      </trkpt>
      <trkpt lat="44.99391" lon="1.06703">
        <ele>82.800003051758</ele>
        <time>2011-08-08T14:22:10.000Z</time>
      </trkpt>
      <trkpt lat="44.99422" lon="1.06742">
        <ele>85.199996948242</ele>
        <time>2011-08-08T14:22:19.000Z</time>
      </trkpt>
      <trkpt lat="44.99432" lon="1.06755">
        <ele>86</ele>
        <time>2011-08-08T14:22:22.000Z</time>
      </trkpt>
      <trkpt lat="44.99473" lon="1.06797">
        <ele>89.400001525879</ele>
        <time>2011-08-08T14:22:33.000Z</time>
      </trkpt>
      <trkpt lat="44.99487" lon="1.06815">
        <ele>91</ele>
        <time>2011-08-08T14:22:37.000Z</time>
      </trkpt>
      <trkpt lat="44.99489" lon="1.06836">
        <ele>91.599998474121</ele>
        <time>2011-08-08T14:22:41.000Z</time>
      </trkpt>
      <trkpt lat="44.99485" lon="1.06847">
        <ele>91.400001525879</ele>
        <time>2011-08-08T14:22:43.000Z</time>
      </trkpt>
      <trkpt lat="44.99478" lon="1.06862">
        <ele>90.800003051758</ele>
        <time>2011-08-08T14:22:46.000Z</time>
      </trkpt>
      <trkpt lat="44.99472" lon="1.06879">
        <ele>90.400001525879</ele>
        <time>2011-08-08T14:22:49.000Z</time>
      </trkpt>
      <trkpt lat="44.99467" lon="1.06923">
        <ele>90</ele>
        <time>2011-08-08T14:22:56.000Z</time>
      </trkpt>
      <trkpt lat="44.99462" lon="1.06943">
        <ele>88.400001525879</ele>
        <time>2011-08-08T14:22:59.000Z</time>
      </trkpt>
      <trkpt lat="44.99463" lon="1.06983">
        <ele>86.400001525879</ele>
        <time>2011-08-08T14:23:04.000Z</time>
      </trkpt>
      <trkpt lat="44.99476" lon="1.06998">
        <ele>87.199996948242</ele>
        <time>2011-08-08T14:23:06.000Z</time>
      </trkpt>
      <trkpt lat="44.99517" lon="1.07025">
        <ele>86.800003051758</ele>
        <time>2011-08-08T14:23:11.000Z</time>
      </trkpt>
      <trkpt lat="44.99542" lon="1.07035">
        <ele>86.800003051758</ele>
        <time>2011-08-08T14:23:14.000Z</time>
      </trkpt>
      <trkpt lat="44.99588" lon="1.07043">
        <ele>87.400001525879</ele>
        <time>2011-08-08T14:23:20.000Z</time>
      </trkpt>
      <trkpt lat="44.99623" lon="1.07046">
        <ele>86.199996948242</ele>
        <time>2011-08-08T14:23:24.000Z</time>
      </trkpt>
      <trkpt lat="44.99661" lon="1.07045">
        <ele>86</ele>
        <time>2011-08-08T14:23:28.000Z</time>
      </trkpt>
      <trkpt lat="44.99687" lon="1.0705">
        <ele>84.800003051758</ele>
        <time>2011-08-08T14:23:33.000Z</time>
      </trkpt>
      <trkpt lat="44.99716" lon="1.07054">
        <ele>83.599998474121</ele>
        <time>2011-08-08T14:23:40.000Z</time>
      </trkpt>
      <trkpt lat="44.99721" lon="1.07077">
        <ele>77</ele>
        <time>2011-08-08T14:23:44.000Z</time>
      </trkpt>
      <trkpt lat="44.99717" lon="1.07112">
        <ele>72.400001525879</ele>
        <time>2011-08-08T14:23:48.000Z</time>
      </trkpt>
      <trkpt lat="44.99725" lon="1.07144">
        <ele>69.599998474121</ele>
        <time>2011-08-08T14:23:52.000Z</time>
      </trkpt>
      <trkpt lat="44.99732" lon="1.07147">
        <ele>69.400001525879</ele>
        <time>2011-08-08T14:23:53.000Z</time>
      </trkpt>
      <trkpt lat="44.99745" lon="1.0715">
        <ele>69.199996948242</ele>
        <time>2011-08-08T14:23:55.000Z</time>
      </trkpt>
      <trkpt lat="44.99765" lon="1.07172">
        <ele>68.400001525879</ele>
        <time>2011-08-08T14:23:59.000Z</time>
      </trkpt>
      <trkpt lat="44.99768" lon="1.07181">
        <ele>68.400001525879</ele>
        <time>2011-08-08T14:24:00.000Z</time>
      </trkpt>
      <trkpt lat="44.99773" lon="1.072">
        <ele>68.199996948242</ele>
        <time>2011-08-08T14:24:02.000Z</time>
      </trkpt>
      <trkpt lat="44.99793" lon="1.07224">
        <ele>68</ele>
        <time>2011-08-08T14:24:06.000Z</time>
      </trkpt>
      <trkpt lat="44.99799" lon="1.07227">
        <ele>68.199996948242</ele>
        <time>2011-08-08T14:24:07.000Z</time>
      </trkpt>
      <trkpt lat="44.99843" lon="1.07232">
        <ele>69</ele>
        <time>2011-08-08T14:24:14.000Z</time>
      </trkpt>
      <trkpt lat="44.99881" lon="1.07231">
        <ele>70.400001525879</ele>
        <time>2011-08-08T14:24:20.000Z</time>
      </trkpt>
      <trkpt lat="44.99917" lon="1.07245">
        <ele>70.400001525879</ele>
        <time>2011-08-08T14:24:26.000Z</time>
      </trkpt>
      <trkpt lat="44.9994" lon="1.07255">
        <ele>70</ele>
        <time>2011-08-08T14:24:30.000Z</time>
      </trkpt>
      <trkpt lat="44.99964" lon="1.07262">
        <ele>70</ele>
        <time>2011-08-08T14:24:34.000Z</time>
      </trkpt>
      <trkpt lat="44.99975" lon="1.07266">
        <ele>69.800003051758</ele>
        <time>2011-08-08T14:24:36.000Z</time>
      </trkpt>
      <trkpt lat="45.00013" lon="1.07278">
        <ele>69.599998474121</ele>
        <time>2011-08-08T14:24:43.000Z</time>
      </trkpt>
      <trkpt lat="45.00045" lon="1.0729">
        <ele>68.400001525879</ele>
        <time>2011-08-08T14:24:50.000Z</time>
      </trkpt>
      <trkpt lat="45.00061" lon="1.07298">
        <ele>68.199996948242</ele>
        <time>2011-08-08T14:24:54.000Z</time>
      </trkpt>
      <trkpt lat="45.00092" lon="1.07312">
        <ele>68</ele>
        <time>2011-08-08T14:25:01.000Z</time>
      </trkpt>
      <trkpt lat="45.00124" lon="1.07325">
        <ele>68.599998474121</ele>
        <time>2011-08-08T14:25:09.000Z</time>
      </trkpt>
      <trkpt lat="45.00139" lon="1.07331">
        <ele>69</ele>
        <time>2011-08-08T14:25:14.000Z</time>
      </trkpt>
      <trkpt lat="45.00141" lon="1.07332">
        <ele>69</ele>
        <time>2011-08-08T14:25:15.000Z</time>
      </trkpt>
      <trkpt lat="45.00152" lon="1.07321">
        <ele>69.599998474121</ele>
        <time>2011-08-08T14:25:19.000Z</time>
      </trkpt>
      <trkpt lat="45.00154" lon="1.07309">
        <ele>69.800003051758</ele>
        <time>2011-08-08T14:25:21.000Z</time>
      </trkpt>
      <trkpt lat="45.00156" lon="1.07283">
        <ele>70.199996948242</ele>
        <time>2011-08-08T14:25:25.000Z</time>
      </trkpt>
      <trkpt lat="45.00156" lon="1.07237">
        <ele>70.599998474121</ele>
        <time>2011-08-08T14:25:32.000Z</time>
      </trkpt>
      <trkpt lat="45.00166" lon="1.0719">
        <ele>69.400001525879</ele>
        <time>2011-08-08T14:25:40.000Z</time>
      </trkpt>
      <trkpt lat="45.00167" lon="1.07185">
        <ele>69.400001525879</ele>
        <time>2011-08-08T14:25:41.000Z</time>
      </trkpt>
      <trkpt lat="45.00175" lon="1.07157">
        <ele>69.800003051758</ele>
        <time>2011-08-08T14:25:47.000Z</time>
      </trkpt>
      <trkpt lat="45.00184" lon="1.07158">
        <ele>70.199996948242</ele>
        <time>2011-08-08T14:25:52.000Z</time>
      </trkpt>
      <trkpt lat="45.00189" lon="1.07159">
        <ele>70.199996948242</ele>
        <time>2011-08-08T14:25:56.000Z</time>
      </trkpt>
    </trkseg>
  </trk>
</gpx>